<?xml version="1.0" encoding="UTF-8" standalone="no" ?>
<gpx xmlns="http://www.topografix.com/GPX/1/1" xmlns:xsi="http://www.w3.org/2001/XMLSchema-instance" xsi:schemaLocation="http://www.topografix.com/GPX/1/1 http://www.topografix.com/GPX/1/1/gpx.xsd" version="1.1" creator="VisuGPX - https://www.visugpx.com">
  <metadata>
    <name>Course à pied dans l'après-midi</name>
  </metadata>
  <trk>
    <name><![CDATA[Course à pied dans l'après-midi_1]]></name>
    <trkseg>
      <trkpt lat="48.71143" lon="7.16276">
        <ele>316.5</ele>
        <time>2023-09-21T14:42:54Z</time>
      </trkpt>
      <trkpt lat="48.71139" lon="7.1627">
        <ele>316.7</ele>
        <time>2023-09-21T14:42:55Z</time>
      </trkpt>
      <trkpt lat="48.71123" lon="7.16255">
        <ele>317.1</ele>
        <time>2023-09-21T14:43:02Z</time>
      </trkpt>
      <trkpt lat="48.71107" lon="7.16236">
        <ele>317.4</ele>
        <time>2023-09-21T14:43:08Z</time>
      </trkpt>
      <trkpt lat="48.71092" lon="7.16217">
        <ele>317.6</ele>
        <time>2023-09-21T14:43:14Z</time>
      </trkpt>
      <trkpt lat="48.71078" lon="7.16199">
        <ele>317.8</ele>
        <time>2023-09-21T14:43:20Z</time>
      </trkpt>
      <trkpt lat="48.71062" lon="7.16185">
        <ele>318</ele>
        <time>2023-09-21T14:43:26Z</time>
      </trkpt>
      <trkpt lat="48.71043" lon="7.16176">
        <ele>318.1</ele>
        <time>2023-09-21T14:43:33Z</time>
      </trkpt>
      <trkpt lat="48.71024" lon="7.16171">
        <ele>318.2</ele>
        <time>2023-09-21T14:43:40Z</time>
      </trkpt>
      <trkpt lat="48.71005" lon="7.16169">
        <ele>318.5</ele>
        <time>2023-09-21T14:43:46Z</time>
      </trkpt>
      <trkpt lat="48.70987" lon="7.16164">
        <ele>318.8</ele>
        <time>2023-09-21T14:43:53Z</time>
      </trkpt>
      <trkpt lat="48.70968" lon="7.16161">
        <ele>319.3</ele>
        <time>2023-09-21T14:43:59Z</time>
      </trkpt>
      <trkpt lat="48.70949" lon="7.16156">
        <ele>320</ele>
        <time>2023-09-21T14:44:06Z</time>
      </trkpt>
      <trkpt lat="48.7093" lon="7.1615">
        <ele>320.6</ele>
        <time>2023-09-21T14:44:13Z</time>
      </trkpt>
      <trkpt lat="48.70911" lon="7.16146">
        <ele>321.4</ele>
        <time>2023-09-21T14:44:20Z</time>
      </trkpt>
      <trkpt lat="48.7089" lon="7.16143">
        <ele>322.2</ele>
        <time>2023-09-21T14:44:27Z</time>
      </trkpt>
      <trkpt lat="48.70869" lon="7.16142">
        <ele>323.1</ele>
        <time>2023-09-21T14:44:34Z</time>
      </trkpt>
      <trkpt lat="48.70851" lon="7.1614">
        <ele>323.8</ele>
        <time>2023-09-21T14:44:40Z</time>
      </trkpt>
      <trkpt lat="48.70832" lon="7.16137">
        <ele>324.5</ele>
        <time>2023-09-21T14:44:47Z</time>
      </trkpt>
      <trkpt lat="48.70816" lon="7.16157">
        <ele>326.8</ele>
        <time>2023-09-21T14:44:56Z</time>
      </trkpt>
      <trkpt lat="48.70802" lon="7.16176">
        <ele>328.4</ele>
        <time>2023-09-21T14:45:03Z</time>
      </trkpt>
      <trkpt lat="48.70786" lon="7.16194">
        <ele>330</ele>
        <time>2023-09-21T14:45:11Z</time>
      </trkpt>
      <trkpt lat="48.70772" lon="7.16216">
        <ele>331.7</ele>
        <time>2023-09-21T14:45:19Z</time>
      </trkpt>
      <trkpt lat="48.70761" lon="7.16239">
        <ele>333.5</ele>
        <time>2023-09-21T14:45:26Z</time>
      </trkpt>
      <trkpt lat="48.70748" lon="7.16262">
        <ele>335.5</ele>
        <time>2023-09-21T14:45:34Z</time>
      </trkpt>
      <trkpt lat="48.70736" lon="7.16285">
        <ele>337.3</ele>
        <time>2023-09-21T14:45:42Z</time>
      </trkpt>
      <trkpt lat="48.70725" lon="7.16311">
        <ele>339.1</ele>
        <time>2023-09-21T14:45:50Z</time>
      </trkpt>
      <trkpt lat="48.70714" lon="7.16334">
        <ele>340.8</ele>
        <time>2023-09-21T14:45:57Z</time>
      </trkpt>
      <trkpt lat="48.70701" lon="7.16355">
        <ele>342.5</ele>
        <time>2023-09-21T14:46:04Z</time>
      </trkpt>
      <trkpt lat="48.70688" lon="7.16376">
        <ele>344.1</ele>
        <time>2023-09-21T14:46:11Z</time>
      </trkpt>
      <trkpt lat="48.70678" lon="7.16399">
        <ele>345.7</ele>
        <time>2023-09-21T14:46:18Z</time>
      </trkpt>
      <trkpt lat="48.70666" lon="7.16422">
        <ele>347.3</ele>
        <time>2023-09-21T14:46:25Z</time>
      </trkpt>
      <trkpt lat="48.70663" lon="7.16437">
        <ele>347.9</ele>
        <time>2023-09-21T14:46:30Z</time>
      </trkpt>
      <trkpt lat="48.70678" lon="7.16452">
        <ele>348.3</ele>
        <time>2023-09-21T14:46:36Z</time>
      </trkpt>
      <trkpt lat="48.70695" lon="7.16467">
        <ele>348.3</ele>
        <time>2023-09-21T14:46:42Z</time>
      </trkpt>
      <trkpt lat="48.70712" lon="7.16481">
        <ele>348</ele>
        <time>2023-09-21T14:46:48Z</time>
      </trkpt>
      <trkpt lat="48.70728" lon="7.16497">
        <ele>347.6</ele>
        <time>2023-09-21T14:46:54Z</time>
      </trkpt>
      <trkpt lat="48.70744" lon="7.16513">
        <ele>347.2</ele>
        <time>2023-09-21T14:47:00Z</time>
      </trkpt>
      <trkpt lat="48.7076" lon="7.16528">
        <ele>346.9</ele>
        <time>2023-09-21T14:47:06Z</time>
      </trkpt>
      <trkpt lat="48.70778" lon="7.16543">
        <ele>346.5</ele>
        <time>2023-09-21T14:47:12Z</time>
      </trkpt>
      <trkpt lat="48.70796" lon="7.16558">
        <ele>346.2</ele>
        <time>2023-09-21T14:47:19Z</time>
      </trkpt>
      <trkpt lat="48.70814" lon="7.1657">
        <ele>345.9</ele>
        <time>2023-09-21T14:47:25Z</time>
      </trkpt>
      <trkpt lat="48.70831" lon="7.16582">
        <ele>345.8</ele>
        <time>2023-09-21T14:47:31Z</time>
      </trkpt>
      <trkpt lat="48.70847" lon="7.16596">
        <ele>345.6</ele>
        <time>2023-09-21T14:47:36Z</time>
      </trkpt>
      <trkpt lat="48.70864" lon="7.16616">
        <ele>345.5</ele>
        <time>2023-09-21T14:47:42Z</time>
      </trkpt>
      <trkpt lat="48.70881" lon="7.16635">
        <ele>345.4</ele>
        <time>2023-09-21T14:47:48Z</time>
      </trkpt>
      <trkpt lat="48.70895" lon="7.16654">
        <ele>345.4</ele>
        <time>2023-09-21T14:47:54Z</time>
      </trkpt>
      <trkpt lat="48.70908" lon="7.16675">
        <ele>345.3</ele>
        <time>2023-09-21T14:48:00Z</time>
      </trkpt>
      <trkpt lat="48.70923" lon="7.16696">
        <ele>345.3</ele>
        <time>2023-09-21T14:48:06Z</time>
      </trkpt>
      <trkpt lat="48.70939" lon="7.16713">
        <ele>345.2</ele>
        <time>2023-09-21T14:48:12Z</time>
      </trkpt>
      <trkpt lat="48.70955" lon="7.16732">
        <ele>345.4</ele>
        <time>2023-09-21T14:48:18Z</time>
      </trkpt>
      <trkpt lat="48.70962" lon="7.1676">
        <ele>345.6</ele>
        <time>2023-09-21T14:48:24Z</time>
      </trkpt>
      <trkpt lat="48.70968" lon="7.16788">
        <ele>345.9</ele>
        <time>2023-09-21T14:48:30Z</time>
      </trkpt>
      <trkpt lat="48.70969" lon="7.16817">
        <ele>346.3</ele>
        <time>2023-09-21T14:48:36Z</time>
      </trkpt>
      <trkpt lat="48.70973" lon="7.16844">
        <ele>346.7</ele>
        <time>2023-09-21T14:48:42Z</time>
      </trkpt>
      <trkpt lat="48.70986" lon="7.16868">
        <ele>347.2</ele>
        <time>2023-09-21T14:48:48Z</time>
      </trkpt>
      <trkpt lat="48.70995" lon="7.16893">
        <ele>347.5</ele>
        <time>2023-09-21T14:48:54Z</time>
      </trkpt>
      <trkpt lat="48.70999" lon="7.1692">
        <ele>348.1</ele>
        <time>2023-09-21T14:49:00Z</time>
      </trkpt>
      <trkpt lat="48.71001" lon="7.16947">
        <ele>348.6</ele>
        <time>2023-09-21T14:49:06Z</time>
      </trkpt>
      <trkpt lat="48.71002" lon="7.16975">
        <ele>349.1</ele>
        <time>2023-09-21T14:49:12Z</time>
      </trkpt>
      <trkpt lat="48.71003" lon="7.17005">
        <ele>349.4</ele>
        <time>2023-09-21T14:49:19Z</time>
      </trkpt>
      <trkpt lat="48.71005" lon="7.17033">
        <ele>349.6</ele>
        <time>2023-09-21T14:49:25Z</time>
      </trkpt>
      <trkpt lat="48.71002" lon="7.17064">
        <ele>349.8</ele>
        <time>2023-09-21T14:49:32Z</time>
      </trkpt>
      <trkpt lat="48.70994" lon="7.17093">
        <ele>349.8</ele>
        <time>2023-09-21T14:49:38Z</time>
      </trkpt>
      <trkpt lat="48.70984" lon="7.17117">
        <ele>350.1</ele>
        <time>2023-09-21T14:49:44Z</time>
      </trkpt>
      <trkpt lat="48.70976" lon="7.17142">
        <ele>350.4</ele>
        <time>2023-09-21T14:49:50Z</time>
      </trkpt>
      <trkpt lat="48.70966" lon="7.17169">
        <ele>350.8</ele>
        <time>2023-09-21T14:49:57Z</time>
      </trkpt>
      <trkpt lat="48.70957" lon="7.17197">
        <ele>351.2</ele>
        <time>2023-09-21T14:50:04Z</time>
      </trkpt>
      <trkpt lat="48.7095" lon="7.17225">
        <ele>351.5</ele>
        <time>2023-09-21T14:50:11Z</time>
      </trkpt>
      <trkpt lat="48.70944" lon="7.17253">
        <ele>352.1</ele>
        <time>2023-09-21T14:50:18Z</time>
      </trkpt>
      <trkpt lat="48.70944" lon="7.17283">
        <ele>353.1</ele>
        <time>2023-09-21T14:50:25Z</time>
      </trkpt>
      <trkpt lat="48.70953" lon="7.17307">
        <ele>353.3</ele>
        <time>2023-09-21T14:50:31Z</time>
      </trkpt>
      <trkpt lat="48.70961" lon="7.17332">
        <ele>353.5</ele>
        <time>2023-09-21T14:50:37Z</time>
      </trkpt>
      <trkpt lat="48.7097" lon="7.17357">
        <ele>353.7</ele>
        <time>2023-09-21T14:50:43Z</time>
      </trkpt>
      <trkpt lat="48.70979" lon="7.17383">
        <ele>353.9</ele>
        <time>2023-09-21T14:50:49Z</time>
      </trkpt>
      <trkpt lat="48.70988" lon="7.1741">
        <ele>354.1</ele>
        <time>2023-09-21T14:50:55Z</time>
      </trkpt>
      <trkpt lat="48.70996" lon="7.17438">
        <ele>354.2</ele>
        <time>2023-09-21T14:51:01Z</time>
      </trkpt>
      <trkpt lat="48.71003" lon="7.17466">
        <ele>354.5</ele>
        <time>2023-09-21T14:51:07Z</time>
      </trkpt>
      <trkpt lat="48.71005" lon="7.17497">
        <ele>354.8</ele>
        <time>2023-09-21T14:51:13Z</time>
      </trkpt>
      <trkpt lat="48.71003" lon="7.17526">
        <ele>355</ele>
        <time>2023-09-21T14:51:19Z</time>
      </trkpt>
      <trkpt lat="48.71" lon="7.17555">
        <ele>355.4</ele>
        <time>2023-09-21T14:51:25Z</time>
      </trkpt>
      <trkpt lat="48.71" lon="7.17584">
        <ele>355.8</ele>
        <time>2023-09-21T14:51:31Z</time>
      </trkpt>
      <trkpt lat="48.71001" lon="7.17613">
        <ele>356.3</ele>
        <time>2023-09-21T14:51:37Z</time>
      </trkpt>
      <trkpt lat="48.71006" lon="7.17639">
        <ele>356.8</ele>
        <time>2023-09-21T14:51:43Z</time>
      </trkpt>
      <trkpt lat="48.71016" lon="7.17663">
        <ele>357.2</ele>
        <time>2023-09-21T14:51:49Z</time>
      </trkpt>
      <trkpt lat="48.7103" lon="7.17685">
        <ele>357.5</ele>
        <time>2023-09-21T14:51:55Z</time>
      </trkpt>
      <trkpt lat="48.71042" lon="7.17707">
        <ele>357.7</ele>
        <time>2023-09-21T14:52:01Z</time>
      </trkpt>
      <trkpt lat="48.71056" lon="7.17727">
        <ele>357.9</ele>
        <time>2023-09-21T14:52:07Z</time>
      </trkpt>
      <trkpt lat="48.71069" lon="7.17747">
        <ele>358.1</ele>
        <time>2023-09-21T14:52:13Z</time>
      </trkpt>
      <trkpt lat="48.71084" lon="7.17768">
        <ele>358.1</ele>
        <time>2023-09-21T14:52:19Z</time>
      </trkpt>
      <trkpt lat="48.71098" lon="7.17788">
        <ele>358.2</ele>
        <time>2023-09-21T14:52:25Z</time>
      </trkpt>
      <trkpt lat="48.71114" lon="7.17809">
        <ele>358.3</ele>
        <time>2023-09-21T14:52:31Z</time>
      </trkpt>
      <trkpt lat="48.7113" lon="7.17829">
        <ele>358.2</ele>
        <time>2023-09-21T14:52:37Z</time>
      </trkpt>
      <trkpt lat="48.71146" lon="7.1785">
        <ele>358.1</ele>
        <time>2023-09-21T14:52:43Z</time>
      </trkpt>
      <trkpt lat="48.7116" lon="7.17873">
        <ele>358.2</ele>
        <time>2023-09-21T14:52:49Z</time>
      </trkpt>
      <trkpt lat="48.71173" lon="7.17897">
        <ele>358.3</ele>
        <time>2023-09-21T14:52:55Z</time>
      </trkpt>
      <trkpt lat="48.71185" lon="7.1792">
        <ele>358.5</ele>
        <time>2023-09-21T14:53:01Z</time>
      </trkpt>
      <trkpt lat="48.71198" lon="7.17945">
        <ele>358.9</ele>
        <time>2023-09-21T14:53:07Z</time>
      </trkpt>
      <trkpt lat="48.71208" lon="7.17968">
        <ele>359.2</ele>
        <time>2023-09-21T14:53:13Z</time>
      </trkpt>
      <trkpt lat="48.71219" lon="7.17992">
        <ele>359.5</ele>
        <time>2023-09-21T14:53:19Z</time>
      </trkpt>
      <trkpt lat="48.7123" lon="7.18016">
        <ele>359.8</ele>
        <time>2023-09-21T14:53:25Z</time>
      </trkpt>
      <trkpt lat="48.71243" lon="7.18039">
        <ele>360.1</ele>
        <time>2023-09-21T14:53:31Z</time>
      </trkpt>
      <trkpt lat="48.71252" lon="7.18064">
        <ele>360.2</ele>
        <time>2023-09-21T14:53:37Z</time>
      </trkpt>
      <trkpt lat="48.71262" lon="7.18088">
        <ele>360.4</ele>
        <time>2023-09-21T14:53:43Z</time>
      </trkpt>
      <trkpt lat="48.71271" lon="7.18113">
        <ele>360.5</ele>
        <time>2023-09-21T14:53:49Z</time>
      </trkpt>
      <trkpt lat="48.71281" lon="7.1814">
        <ele>360.6</ele>
        <time>2023-09-21T14:53:55Z</time>
      </trkpt>
      <trkpt lat="48.71292" lon="7.18164">
        <ele>360.8</ele>
        <time>2023-09-21T14:54:01Z</time>
      </trkpt>
      <trkpt lat="48.71302" lon="7.1819">
        <ele>361</ele>
        <time>2023-09-21T14:54:07Z</time>
      </trkpt>
      <trkpt lat="48.71314" lon="7.18214">
        <ele>361.1</ele>
        <time>2023-09-21T14:54:13Z</time>
      </trkpt>
      <trkpt lat="48.71327" lon="7.18238">
        <ele>361.3</ele>
        <time>2023-09-21T14:54:19Z</time>
      </trkpt>
      <trkpt lat="48.7134" lon="7.18263">
        <ele>361.4</ele>
        <time>2023-09-21T14:54:25Z</time>
      </trkpt>
      <trkpt lat="48.71352" lon="7.18286">
        <ele>361.4</ele>
        <time>2023-09-21T14:54:31Z</time>
      </trkpt>
      <trkpt lat="48.71364" lon="7.18309">
        <ele>361.5</ele>
        <time>2023-09-21T14:54:37Z</time>
      </trkpt>
      <trkpt lat="48.71373" lon="7.18335">
        <ele>361.5</ele>
        <time>2023-09-21T14:54:43Z</time>
      </trkpt>
      <trkpt lat="48.71383" lon="7.18358">
        <ele>361.6</ele>
        <time>2023-09-21T14:54:48Z</time>
      </trkpt>
      <trkpt lat="48.71394" lon="7.18383">
        <ele>362</ele>
        <time>2023-09-21T14:54:54Z</time>
      </trkpt>
      <trkpt lat="48.71407" lon="7.18405">
        <ele>362.6</ele>
        <time>2023-09-21T14:55:00Z</time>
      </trkpt>
      <trkpt lat="48.71425" lon="7.18393">
        <ele>361.8</ele>
        <time>2023-09-21T14:55:06Z</time>
      </trkpt>
      <trkpt lat="48.7144" lon="7.18376">
        <ele>361.4</ele>
        <time>2023-09-21T14:55:11Z</time>
      </trkpt>
      <trkpt lat="48.71457" lon="7.18357">
        <ele>361</ele>
        <time>2023-09-21T14:55:17Z</time>
      </trkpt>
      <trkpt lat="48.71472" lon="7.18341">
        <ele>360.7</ele>
        <time>2023-09-21T14:55:22Z</time>
      </trkpt>
      <trkpt lat="48.71489" lon="7.18323">
        <ele>360.2</ele>
        <time>2023-09-21T14:55:28Z</time>
      </trkpt>
      <trkpt lat="48.71507" lon="7.18308">
        <ele>359.7</ele>
        <time>2023-09-21T14:55:34Z</time>
      </trkpt>
      <trkpt lat="48.71528" lon="7.18308">
        <ele>359.1</ele>
        <time>2023-09-21T14:55:40Z</time>
      </trkpt>
      <trkpt lat="48.71545" lon="7.18321">
        <ele>358.6</ele>
        <time>2023-09-21T14:55:45Z</time>
      </trkpt>
      <trkpt lat="48.71558" lon="7.18344">
        <ele>358.2</ele>
        <time>2023-09-21T14:55:50Z</time>
      </trkpt>
      <trkpt lat="48.71569" lon="7.18369">
        <ele>357.8</ele>
        <time>2023-09-21T14:55:55Z</time>
      </trkpt>
      <trkpt lat="48.71582" lon="7.18396">
        <ele>357.4</ele>
        <time>2023-09-21T14:56:01Z</time>
      </trkpt>
      <trkpt lat="48.71592" lon="7.18418">
        <ele>357.2</ele>
        <time>2023-09-21T14:56:06Z</time>
      </trkpt>
      <trkpt lat="48.71604" lon="7.18444">
        <ele>357</ele>
        <time>2023-09-21T14:56:12Z</time>
      </trkpt>
      <trkpt lat="48.71616" lon="7.18468">
        <ele>356.8</ele>
        <time>2023-09-21T14:56:18Z</time>
      </trkpt>
      <trkpt lat="48.7163" lon="7.1849">
        <ele>356.6</ele>
        <time>2023-09-21T14:56:24Z</time>
      </trkpt>
      <trkpt lat="48.71641" lon="7.18515">
        <ele>356.4</ele>
        <time>2023-09-21T14:56:30Z</time>
      </trkpt>
      <trkpt lat="48.71653" lon="7.18541">
        <ele>356.2</ele>
        <time>2023-09-21T14:56:36Z</time>
      </trkpt>
      <trkpt lat="48.71663" lon="7.18567">
        <ele>355.9</ele>
        <time>2023-09-21T14:56:42Z</time>
      </trkpt>
      <trkpt lat="48.71675" lon="7.18593">
        <ele>355.5</ele>
        <time>2023-09-21T14:56:48Z</time>
      </trkpt>
      <trkpt lat="48.71687" lon="7.18618">
        <ele>355.2</ele>
        <time>2023-09-21T14:56:54Z</time>
      </trkpt>
      <trkpt lat="48.71698" lon="7.18643">
        <ele>354.7</ele>
        <time>2023-09-21T14:57:00Z</time>
      </trkpt>
      <trkpt lat="48.7171" lon="7.18667">
        <ele>354.2</ele>
        <time>2023-09-21T14:57:06Z</time>
      </trkpt>
      <trkpt lat="48.71723" lon="7.18693">
        <ele>353.8</ele>
        <time>2023-09-21T14:57:12Z</time>
      </trkpt>
      <trkpt lat="48.71734" lon="7.18719">
        <ele>353.3</ele>
        <time>2023-09-21T14:57:18Z</time>
      </trkpt>
      <trkpt lat="48.71748" lon="7.18736">
        <ele>353</ele>
        <time>2023-09-21T14:57:24Z</time>
      </trkpt>
      <trkpt lat="48.71765" lon="7.18727">
        <ele>350.2</ele>
        <time>2023-09-21T14:57:29Z</time>
      </trkpt>
      <trkpt lat="48.7178" lon="7.18712">
        <ele>348.9</ele>
        <time>2023-09-21T14:57:34Z</time>
      </trkpt>
      <trkpt lat="48.71796" lon="7.1869">
        <ele>347.4</ele>
        <time>2023-09-21T14:57:40Z</time>
      </trkpt>
      <trkpt lat="48.71811" lon="7.18674">
        <ele>345.9</ele>
        <time>2023-09-21T14:57:45Z</time>
      </trkpt>
      <trkpt lat="48.71825" lon="7.18658">
        <ele>344.5</ele>
        <time>2023-09-21T14:57:50Z</time>
      </trkpt>
      <trkpt lat="48.71842" lon="7.18639">
        <ele>342.3</ele>
        <time>2023-09-21T14:57:56Z</time>
      </trkpt>
      <trkpt lat="48.71858" lon="7.18622">
        <ele>340.2</ele>
        <time>2023-09-21T14:58:02Z</time>
      </trkpt>
      <trkpt lat="48.71875" lon="7.18606">
        <ele>338.1</ele>
        <time>2023-09-21T14:58:08Z</time>
      </trkpt>
      <trkpt lat="48.71893" lon="7.18589">
        <ele>336</ele>
        <time>2023-09-21T14:58:14Z</time>
      </trkpt>
      <trkpt lat="48.7191" lon="7.18573">
        <ele>333.9</ele>
        <time>2023-09-21T14:58:20Z</time>
      </trkpt>
      <trkpt lat="48.71926" lon="7.18555">
        <ele>331.6</ele>
        <time>2023-09-21T14:58:26Z</time>
      </trkpt>
      <trkpt lat="48.71944" lon="7.18538">
        <ele>329.3</ele>
        <time>2023-09-21T14:58:32Z</time>
      </trkpt>
      <trkpt lat="48.71961" lon="7.1852">
        <ele>326.9</ele>
        <time>2023-09-21T14:58:38Z</time>
      </trkpt>
      <trkpt lat="48.7198" lon="7.18513">
        <ele>324.6</ele>
        <time>2023-09-21T14:58:44Z</time>
      </trkpt>
      <trkpt lat="48.71999" lon="7.1852">
        <ele>322.4</ele>
        <time>2023-09-21T14:58:50Z</time>
      </trkpt>
      <trkpt lat="48.72017" lon="7.18532">
        <ele>320.3</ele>
        <time>2023-09-21T14:58:56Z</time>
      </trkpt>
      <trkpt lat="48.72036" lon="7.18529">
        <ele>318.2</ele>
        <time>2023-09-21T14:59:02Z</time>
      </trkpt>
      <trkpt lat="48.72055" lon="7.18533">
        <ele>316.2</ele>
        <time>2023-09-21T14:59:08Z</time>
      </trkpt>
      <trkpt lat="48.72074" lon="7.18545">
        <ele>314.1</ele>
        <time>2023-09-21T14:59:14Z</time>
      </trkpt>
      <trkpt lat="48.72089" lon="7.18562">
        <ele>312.3</ele>
        <time>2023-09-21T14:59:19Z</time>
      </trkpt>
      <trkpt lat="48.72103" lon="7.18585">
        <ele>310.4</ele>
        <time>2023-09-21T14:59:25Z</time>
      </trkpt>
      <trkpt lat="48.72114" lon="7.18607">
        <ele>308.8</ele>
        <time>2023-09-21T14:59:30Z</time>
      </trkpt>
      <trkpt lat="48.72127" lon="7.18628">
        <ele>307</ele>
        <time>2023-09-21T14:59:35Z</time>
      </trkpt>
      <trkpt lat="48.7214" lon="7.18649">
        <ele>305.1</ele>
        <time>2023-09-21T14:59:40Z</time>
      </trkpt>
      <trkpt lat="48.72152" lon="7.1867">
        <ele>303.4</ele>
        <time>2023-09-21T14:59:45Z</time>
      </trkpt>
      <trkpt lat="48.72163" lon="7.18693">
        <ele>301.7</ele>
        <time>2023-09-21T14:59:50Z</time>
      </trkpt>
      <trkpt lat="48.72176" lon="7.18718">
        <ele>299.9</ele>
        <time>2023-09-21T14:59:56Z</time>
      </trkpt>
      <trkpt lat="48.72188" lon="7.18743">
        <ele>298</ele>
        <time>2023-09-21T15:00:02Z</time>
      </trkpt>
      <trkpt lat="48.72202" lon="7.18766">
        <ele>296</ele>
        <time>2023-09-21T15:00:08Z</time>
      </trkpt>
      <trkpt lat="48.72213" lon="7.1879">
        <ele>294.2</ele>
        <time>2023-09-21T15:00:14Z</time>
      </trkpt>
      <trkpt lat="48.72223" lon="7.18818">
        <ele>291.4</ele>
        <time>2023-09-21T15:00:20Z</time>
      </trkpt>
      <trkpt lat="48.72231" lon="7.18848">
        <ele>290.5</ele>
        <time>2023-09-21T15:00:26Z</time>
      </trkpt>
      <trkpt lat="48.7224" lon="7.18863">
        <ele>289.3</ele>
        <time>2023-09-21T15:00:31Z</time>
      </trkpt>
      <trkpt lat="48.72245" lon="7.18853">
        <ele>288.6</ele>
        <time>2023-09-21T15:00:34Z</time>
      </trkpt>
      <trkpt lat="48.72238" lon="7.18823">
        <ele>286.7</ele>
        <time>2023-09-21T15:00:40Z</time>
      </trkpt>
      <trkpt lat="48.72231" lon="7.18796">
        <ele>284.9</ele>
        <time>2023-09-21T15:00:46Z</time>
      </trkpt>
      <trkpt lat="48.7223" lon="7.18767">
        <ele>283.1</ele>
        <time>2023-09-21T15:00:52Z</time>
      </trkpt>
      <trkpt lat="48.72223" lon="7.18738">
        <ele>281.3</ele>
        <time>2023-09-21T15:00:58Z</time>
      </trkpt>
      <trkpt lat="48.72225" lon="7.18721">
        <ele>280.1</ele>
        <time>2023-09-21T15:01:03Z</time>
      </trkpt>
      <trkpt lat="48.72243" lon="7.18728">
        <ele>277.8</ele>
        <time>2023-09-21T15:01:11Z</time>
      </trkpt>
      <trkpt lat="48.7226" lon="7.18739">
        <ele>275</ele>
        <time>2023-09-21T15:01:18Z</time>
      </trkpt>
      <trkpt lat="48.72271" lon="7.18764">
        <ele>271.1</ele>
        <time>2023-09-21T15:01:27Z</time>
      </trkpt>
      <trkpt lat="48.72281" lon="7.18789">
        <ele>267.2</ele>
        <time>2023-09-21T15:01:34Z</time>
      </trkpt>
      <trkpt lat="48.72289" lon="7.18803">
        <ele>259</ele>
        <time>2023-09-21T15:01:43Z</time>
      </trkpt>
      <trkpt lat="48.72289" lon="7.18803">
        <ele>259</ele>
        <time>2023-09-21T15:01:53Z</time>
      </trkpt>
      <trkpt lat="48.72289" lon="7.18803">
        <ele>259</ele>
        <time>2023-09-21T15:01:59Z</time>
      </trkpt>
      <trkpt lat="48.72334" lon="7.18828">
        <ele>255.5</ele>
        <time>2023-09-21T15:02:03Z</time>
      </trkpt>
      <trkpt lat="48.72349" lon="7.18835">
        <ele>253.9</ele>
        <time>2023-09-21T15:02:08Z</time>
      </trkpt>
      <trkpt lat="48.72354" lon="7.18862">
        <ele>253.1</ele>
        <time>2023-09-21T15:02:14Z</time>
      </trkpt>
      <trkpt lat="48.7235" lon="7.18892">
        <ele>252.9</ele>
        <time>2023-09-21T15:02:20Z</time>
      </trkpt>
      <trkpt lat="48.72344" lon="7.18923">
        <ele>253</ele>
        <time>2023-09-21T15:02:26Z</time>
      </trkpt>
      <trkpt lat="48.72339" lon="7.18949">
        <ele>253.1</ele>
        <time>2023-09-21T15:02:31Z</time>
      </trkpt>
      <trkpt lat="48.72334" lon="7.1898">
        <ele>253.2</ele>
        <time>2023-09-21T15:02:37Z</time>
      </trkpt>
      <trkpt lat="48.72329" lon="7.19007">
        <ele>253.2</ele>
        <time>2023-09-21T15:02:43Z</time>
      </trkpt>
      <trkpt lat="48.72323" lon="7.19038">
        <ele>253.1</ele>
        <time>2023-09-21T15:02:49Z</time>
      </trkpt>
      <trkpt lat="48.7232" lon="7.19066">
        <ele>253.1</ele>
        <time>2023-09-21T15:02:55Z</time>
      </trkpt>
      <trkpt lat="48.72317" lon="7.19095">
        <ele>253</ele>
        <time>2023-09-21T15:03:01Z</time>
      </trkpt>
      <trkpt lat="48.72312" lon="7.19124">
        <ele>252.9</ele>
        <time>2023-09-21T15:03:07Z</time>
      </trkpt>
      <trkpt lat="48.72309" lon="7.19152">
        <ele>252.9</ele>
        <time>2023-09-21T15:03:13Z</time>
      </trkpt>
      <trkpt lat="48.72304" lon="7.19183">
        <ele>252.9</ele>
        <time>2023-09-21T15:03:19Z</time>
      </trkpt>
      <trkpt lat="48.72303" lon="7.19213">
        <ele>252.9</ele>
        <time>2023-09-21T15:03:25Z</time>
      </trkpt>
      <trkpt lat="48.72304" lon="7.19243">
        <ele>252.9</ele>
        <time>2023-09-21T15:03:31Z</time>
      </trkpt>
      <trkpt lat="48.72304" lon="7.19273">
        <ele>252.7</ele>
        <time>2023-09-21T15:03:37Z</time>
      </trkpt>
      <trkpt lat="48.72305" lon="7.19303">
        <ele>252.5</ele>
        <time>2023-09-21T15:03:43Z</time>
      </trkpt>
      <trkpt lat="48.72301" lon="7.19335">
        <ele>252.2</ele>
        <time>2023-09-21T15:03:49Z</time>
      </trkpt>
      <trkpt lat="48.723" lon="7.19366">
        <ele>252</ele>
        <time>2023-09-21T15:03:55Z</time>
      </trkpt>
      <trkpt lat="48.723" lon="7.19397">
        <ele>251.6</ele>
        <time>2023-09-21T15:04:01Z</time>
      </trkpt>
      <trkpt lat="48.72298" lon="7.19428">
        <ele>251.3</ele>
        <time>2023-09-21T15:04:07Z</time>
      </trkpt>
      <trkpt lat="48.72305" lon="7.19452">
        <ele>256.3</ele>
        <time>2023-09-21T15:04:13Z</time>
      </trkpt>
      <trkpt lat="48.72305" lon="7.19452">
        <ele>245.9</ele>
        <time>2023-09-21T15:04:25Z</time>
      </trkpt>
      <trkpt lat="48.72305" lon="7.19452">
        <ele>245.9</ele>
        <time>2023-09-21T15:04:32Z</time>
      </trkpt>
      <trkpt lat="48.72305" lon="7.19452">
        <ele>245.9</ele>
        <time>2023-09-21T15:04:37Z</time>
      </trkpt>
      <trkpt lat="48.72305" lon="7.19452">
        <ele>245.9</ele>
        <time>2023-09-21T15:04:43Z</time>
      </trkpt>
      <trkpt lat="48.72305" lon="7.19452">
        <ele>245.9</ele>
        <time>2023-09-21T15:04:49Z</time>
      </trkpt>
      <trkpt lat="48.72305" lon="7.19452">
        <ele>245.9</ele>
        <time>2023-09-21T15:04:55Z</time>
      </trkpt>
      <trkpt lat="48.72305" lon="7.19452">
        <ele>245.9</ele>
        <time>2023-09-21T15:05:01Z</time>
      </trkpt>
      <trkpt lat="48.72366" lon="7.19496">
        <ele>246.5</ele>
        <time>2023-09-21T15:05:05Z</time>
      </trkpt>
      <trkpt lat="48.72363" lon="7.19523">
        <ele>246.2</ele>
        <time>2023-09-21T15:05:12Z</time>
      </trkpt>
      <trkpt lat="48.72381" lon="7.19533">
        <ele>246.6</ele>
        <time>2023-09-21T15:05:20Z</time>
      </trkpt>
      <trkpt lat="48.72399" lon="7.19546">
        <ele>249.8</ele>
        <time>2023-09-21T15:05:31Z</time>
      </trkpt>
      <trkpt lat="48.7241" lon="7.19568">
        <ele>253.2</ele>
        <time>2023-09-21T15:05:41Z</time>
      </trkpt>
      <trkpt lat="48.72412" lon="7.19568">
        <ele>253.4</ele>
        <time>2023-09-21T15:05:44Z</time>
      </trkpt>
      <trkpt lat="48.72407" lon="7.19542">
        <ele>253.5</ele>
        <time>2023-09-21T15:05:51Z</time>
      </trkpt>
      <trkpt lat="48.724" lon="7.19513">
        <ele>253.5</ele>
        <time>2023-09-21T15:05:57Z</time>
      </trkpt>
      <trkpt lat="48.72392" lon="7.19484">
        <ele>253.5</ele>
        <time>2023-09-21T15:06:03Z</time>
      </trkpt>
      <trkpt lat="48.72388" lon="7.19457">
        <ele>253.6</ele>
        <time>2023-09-21T15:06:08Z</time>
      </trkpt>
      <trkpt lat="48.72386" lon="7.19428">
        <ele>253.7</ele>
        <time>2023-09-21T15:06:14Z</time>
      </trkpt>
      <trkpt lat="48.72384" lon="7.19398">
        <ele>253.9</ele>
        <time>2023-09-21T15:06:20Z</time>
      </trkpt>
      <trkpt lat="48.72383" lon="7.19369">
        <ele>254.5</ele>
        <time>2023-09-21T15:06:26Z</time>
      </trkpt>
      <trkpt lat="48.72383" lon="7.19339">
        <ele>255.3</ele>
        <time>2023-09-21T15:06:33Z</time>
      </trkpt>
      <trkpt lat="48.72384" lon="7.19307">
        <ele>255.9</ele>
        <time>2023-09-21T15:06:40Z</time>
      </trkpt>
      <trkpt lat="48.72386" lon="7.19278">
        <ele>256.1</ele>
        <time>2023-09-21T15:06:47Z</time>
      </trkpt>
      <trkpt lat="48.72386" lon="7.1925">
        <ele>256.2</ele>
        <time>2023-09-21T15:06:53Z</time>
      </trkpt>
      <trkpt lat="48.72385" lon="7.19219">
        <ele>256.2</ele>
        <time>2023-09-21T15:06:59Z</time>
      </trkpt>
      <trkpt lat="48.72385" lon="7.19188">
        <ele>256.2</ele>
        <time>2023-09-21T15:07:05Z</time>
      </trkpt>
      <trkpt lat="48.72387" lon="7.19158">
        <ele>256.1</ele>
        <time>2023-09-21T15:07:11Z</time>
      </trkpt>
      <trkpt lat="48.7239" lon="7.19127">
        <ele>256.1</ele>
        <time>2023-09-21T15:07:17Z</time>
      </trkpt>
      <trkpt lat="48.72393" lon="7.19097">
        <ele>256.2</ele>
        <time>2023-09-21T15:07:23Z</time>
      </trkpt>
      <trkpt lat="48.72397" lon="7.19067">
        <ele>256.4</ele>
        <time>2023-09-21T15:07:29Z</time>
      </trkpt>
      <trkpt lat="48.72403" lon="7.19037">
        <ele>256.9</ele>
        <time>2023-09-21T15:07:35Z</time>
      </trkpt>
      <trkpt lat="48.72408" lon="7.19011">
        <ele>257.8</ele>
        <time>2023-09-21T15:07:41Z</time>
      </trkpt>
      <trkpt lat="48.72415" lon="7.18981">
        <ele>258.4</ele>
        <time>2023-09-21T15:07:48Z</time>
      </trkpt>
      <trkpt lat="48.7242" lon="7.18953">
        <ele>258.5</ele>
        <time>2023-09-21T15:07:54Z</time>
      </trkpt>
      <trkpt lat="48.72424" lon="7.18925">
        <ele>258.7</ele>
        <time>2023-09-21T15:08:00Z</time>
      </trkpt>
      <trkpt lat="48.72428" lon="7.18896">
        <ele>258.7</ele>
        <time>2023-09-21T15:08:06Z</time>
      </trkpt>
      <trkpt lat="48.72434" lon="7.1887">
        <ele>258.7</ele>
        <time>2023-09-21T15:08:12Z</time>
      </trkpt>
      <trkpt lat="48.72438" lon="7.18841">
        <ele>258.8</ele>
        <time>2023-09-21T15:08:18Z</time>
      </trkpt>
      <trkpt lat="48.72442" lon="7.18814">
        <ele>258.9</ele>
        <time>2023-09-21T15:08:24Z</time>
      </trkpt>
      <trkpt lat="48.72448" lon="7.18784">
        <ele>258.9</ele>
        <time>2023-09-21T15:08:31Z</time>
      </trkpt>
      <trkpt lat="48.72459" lon="7.18757">
        <ele>258.9</ele>
        <time>2023-09-21T15:08:38Z</time>
      </trkpt>
      <trkpt lat="48.7247" lon="7.18731">
        <ele>259.2</ele>
        <time>2023-09-21T15:08:45Z</time>
      </trkpt>
      <trkpt lat="48.72484" lon="7.1871">
        <ele>259.9</ele>
        <time>2023-09-21T15:08:52Z</time>
      </trkpt>
      <trkpt lat="48.72498" lon="7.1869">
        <ele>260.6</ele>
        <time>2023-09-21T15:08:59Z</time>
      </trkpt>
      <trkpt lat="48.72511" lon="7.18672">
        <ele>261.1</ele>
        <time>2023-09-21T15:09:05Z</time>
      </trkpt>
      <trkpt lat="48.72525" lon="7.1865">
        <ele>261.4</ele>
        <time>2023-09-21T15:09:11Z</time>
      </trkpt>
      <trkpt lat="48.72529" lon="7.18646">
        <ele>262.6</ele>
        <time>2023-09-21T15:09:12Z</time>
      </trkpt>
      <trkpt lat="48.72532" lon="7.18648">
        <ele>263.2</ele>
        <time>2023-09-21T15:09:14Z</time>
      </trkpt>
      <trkpt lat="48.7254" lon="7.18657">
        <ele>263.2</ele>
        <time>2023-09-21T15:09:18Z</time>
      </trkpt>
      <trkpt lat="48.72559" lon="7.18647">
        <ele>263.5</ele>
        <time>2023-09-21T15:09:25Z</time>
      </trkpt>
      <trkpt lat="48.72577" lon="7.18648">
        <ele>263.9</ele>
        <time>2023-09-21T15:09:33Z</time>
      </trkpt>
      <trkpt lat="48.72597" lon="7.18651">
        <ele>264.7</ele>
        <time>2023-09-21T15:09:41Z</time>
      </trkpt>
      <trkpt lat="48.72617" lon="7.18658">
        <ele>265.7</ele>
        <time>2023-09-21T15:09:48Z</time>
      </trkpt>
      <trkpt lat="48.72637" lon="7.18663">
        <ele>266.4</ele>
        <time>2023-09-21T15:09:55Z</time>
      </trkpt>
      <trkpt lat="48.72655" lon="7.18668">
        <ele>266.7</ele>
        <time>2023-09-21T15:10:01Z</time>
      </trkpt>
      <trkpt lat="48.72673" lon="7.18672">
        <ele>266.8</ele>
        <time>2023-09-21T15:10:08Z</time>
      </trkpt>
      <trkpt lat="48.72682" lon="7.18646">
        <ele>266.3</ele>
        <time>2023-09-21T15:10:15Z</time>
      </trkpt>
      <trkpt lat="48.72684" lon="7.18619">
        <ele>267.4</ele>
        <time>2023-09-21T15:10:22Z</time>
      </trkpt>
      <trkpt lat="48.72697" lon="7.18601">
        <ele>270.9</ele>
        <time>2023-09-21T15:10:30Z</time>
      </trkpt>
      <trkpt lat="48.72715" lon="7.18606">
        <ele>272.2</ele>
        <time>2023-09-21T15:10:39Z</time>
      </trkpt>
      <trkpt lat="48.72733" lon="7.18616">
        <ele>273.7</ele>
        <time>2023-09-21T15:10:47Z</time>
      </trkpt>
      <trkpt lat="48.72751" lon="7.18624">
        <ele>275.2</ele>
        <time>2023-09-21T15:10:53Z</time>
      </trkpt>
      <trkpt lat="48.72768" lon="7.1863">
        <ele>276.4</ele>
        <time>2023-09-21T15:10:59Z</time>
      </trkpt>
      <trkpt lat="48.72787" lon="7.18641">
        <ele>277.8</ele>
        <time>2023-09-21T15:11:06Z</time>
      </trkpt>
      <trkpt lat="48.72805" lon="7.18652">
        <ele>279</ele>
        <time>2023-09-21T15:11:13Z</time>
      </trkpt>
      <trkpt lat="48.72822" lon="7.1866">
        <ele>280.2</ele>
        <time>2023-09-21T15:11:19Z</time>
      </trkpt>
      <trkpt lat="48.72839" lon="7.18669">
        <ele>281.4</ele>
        <time>2023-09-21T15:11:26Z</time>
      </trkpt>
      <trkpt lat="48.72856" lon="7.18679">
        <ele>282.6</ele>
        <time>2023-09-21T15:11:33Z</time>
      </trkpt>
      <trkpt lat="48.72874" lon="7.18693">
        <ele>283.7</ele>
        <time>2023-09-21T15:11:40Z</time>
      </trkpt>
      <trkpt lat="48.72891" lon="7.18706">
        <ele>284.8</ele>
        <time>2023-09-21T15:11:47Z</time>
      </trkpt>
      <trkpt lat="48.7291" lon="7.1871">
        <ele>285.9</ele>
        <time>2023-09-21T15:11:56Z</time>
      </trkpt>
      <trkpt lat="48.7293" lon="7.18714">
        <ele>287.1</ele>
        <time>2023-09-21T15:12:04Z</time>
      </trkpt>
      <trkpt lat="48.72948" lon="7.18718">
        <ele>288.2</ele>
        <time>2023-09-21T15:12:09Z</time>
      </trkpt>
      <trkpt lat="48.72968" lon="7.18717">
        <ele>289.3</ele>
        <time>2023-09-21T15:12:16Z</time>
      </trkpt>
      <trkpt lat="48.72987" lon="7.18711">
        <ele>290.3</ele>
        <time>2023-09-21T15:12:22Z</time>
      </trkpt>
      <trkpt lat="48.73005" lon="7.18701">
        <ele>291.5</ele>
        <time>2023-09-21T15:12:29Z</time>
      </trkpt>
      <trkpt lat="48.73011" lon="7.18699">
        <ele>291.4</ele>
        <time>2023-09-21T15:12:30Z</time>
      </trkpt>
      <trkpt lat="48.73031" lon="7.18698">
        <ele>291.1</ele>
        <time>2023-09-21T15:12:39Z</time>
      </trkpt>
      <trkpt lat="48.7305" lon="7.18688">
        <ele>290.7</ele>
        <time>2023-09-21T15:12:46Z</time>
      </trkpt>
      <trkpt lat="48.73067" lon="7.18676">
        <ele>290.4</ele>
        <time>2023-09-21T15:12:53Z</time>
      </trkpt>
      <trkpt lat="48.73084" lon="7.18661">
        <ele>289.8</ele>
        <time>2023-09-21T15:13:01Z</time>
      </trkpt>
      <trkpt lat="48.73102" lon="7.18646">
        <ele>288.7</ele>
        <time>2023-09-21T15:13:08Z</time>
      </trkpt>
      <trkpt lat="48.73114" lon="7.18626">
        <ele>287.8</ele>
        <time>2023-09-21T15:13:15Z</time>
      </trkpt>
      <trkpt lat="48.73127" lon="7.18607">
        <ele>286.9</ele>
        <time>2023-09-21T15:13:23Z</time>
      </trkpt>
      <trkpt lat="48.73129" lon="7.18591">
        <ele>286.5</ele>
        <time>2023-09-21T15:13:29Z</time>
      </trkpt>
      <trkpt lat="48.73131" lon="7.18576">
        <ele>286.1</ele>
        <time>2023-09-21T15:13:33Z</time>
      </trkpt>
      <trkpt lat="48.73135" lon="7.1855">
        <ele>285.9</ele>
        <time>2023-09-21T15:13:40Z</time>
      </trkpt>
      <trkpt lat="48.7315" lon="7.18535">
        <ele>285.2</ele>
        <time>2023-09-21T15:13:48Z</time>
      </trkpt>
      <trkpt lat="48.73157" lon="7.18532">
        <ele>285.2</ele>
        <time>2023-09-21T15:13:51Z</time>
      </trkpt>
      <trkpt lat="48.73168" lon="7.1851">
        <ele>286.9</ele>
        <time>2023-09-21T15:13:58Z</time>
      </trkpt>
      <trkpt lat="48.73173" lon="7.18492">
        <ele>289.2</ele>
        <time>2023-09-21T15:14:04Z</time>
      </trkpt>
      <trkpt lat="48.73187" lon="7.18472">
        <ele>292.5</ele>
        <time>2023-09-21T15:14:11Z</time>
      </trkpt>
      <trkpt lat="48.73203" lon="7.18457">
        <ele>294.7</ele>
        <time>2023-09-21T15:14:17Z</time>
      </trkpt>
      <trkpt lat="48.73217" lon="7.18438">
        <ele>296.7</ele>
        <time>2023-09-21T15:14:22Z</time>
      </trkpt>
      <trkpt lat="48.73233" lon="7.1842">
        <ele>297.9</ele>
        <time>2023-09-21T15:14:28Z</time>
      </trkpt>
      <trkpt lat="48.73242" lon="7.18416">
        <ele>297.7</ele>
        <time>2023-09-21T15:14:31Z</time>
      </trkpt>
      <trkpt lat="48.73256" lon="7.18438">
        <ele>295.9</ele>
        <time>2023-09-21T15:14:36Z</time>
      </trkpt>
      <trkpt lat="48.73273" lon="7.1846">
        <ele>294</ele>
        <time>2023-09-21T15:14:41Z</time>
      </trkpt>
      <trkpt lat="48.7329" lon="7.18472">
        <ele>294.4</ele>
        <time>2023-09-21T15:14:45Z</time>
      </trkpt>
      <trkpt lat="48.73298" lon="7.18502">
        <ele>295.9</ele>
        <time>2023-09-21T15:14:51Z</time>
      </trkpt>
      <trkpt lat="48.73306" lon="7.18527">
        <ele>297.5</ele>
        <time>2023-09-21T15:14:56Z</time>
      </trkpt>
      <trkpt lat="48.73316" lon="7.18552">
        <ele>299.3</ele>
        <time>2023-09-21T15:15:01Z</time>
      </trkpt>
      <trkpt lat="48.73324" lon="7.18579">
        <ele>300.3</ele>
        <time>2023-09-21T15:15:06Z</time>
      </trkpt>
      <trkpt lat="48.73322" lon="7.18596">
        <ele>300.5</ele>
        <time>2023-09-21T15:15:09Z</time>
      </trkpt>
      <trkpt lat="48.73313" lon="7.18624">
        <ele>300.1</ele>
        <time>2023-09-21T15:15:14Z</time>
      </trkpt>
      <trkpt lat="48.73301" lon="7.1865">
        <ele>298.6</ele>
        <time>2023-09-21T15:15:19Z</time>
      </trkpt>
      <trkpt lat="48.73286" lon="7.18664">
        <ele>296.7</ele>
        <time>2023-09-21T15:15:23Z</time>
      </trkpt>
      <trkpt lat="48.73271" lon="7.18682">
        <ele>295.4</ele>
        <time>2023-09-21T15:15:28Z</time>
      </trkpt>
      <trkpt lat="48.73273" lon="7.18713">
        <ele>295.5</ele>
        <time>2023-09-21T15:15:33Z</time>
      </trkpt>
      <trkpt lat="48.73275" lon="7.18742">
        <ele>295.8</ele>
        <time>2023-09-21T15:15:38Z</time>
      </trkpt>
      <trkpt lat="48.73283" lon="7.18772">
        <ele>296.6</ele>
        <time>2023-09-21T15:15:43Z</time>
      </trkpt>
      <trkpt lat="48.73296" lon="7.18796">
        <ele>297.6</ele>
        <time>2023-09-21T15:15:48Z</time>
      </trkpt>
      <trkpt lat="48.73309" lon="7.18817">
        <ele>298.7</ele>
        <time>2023-09-21T15:15:53Z</time>
      </trkpt>
      <trkpt lat="48.73322" lon="7.18835">
        <ele>300</ele>
        <time>2023-09-21T15:15:58Z</time>
      </trkpt>
      <trkpt lat="48.73335" lon="7.18854">
        <ele>301.3</ele>
        <time>2023-09-21T15:16:03Z</time>
      </trkpt>
      <trkpt lat="48.73349" lon="7.18872">
        <ele>302.7</ele>
        <time>2023-09-21T15:16:09Z</time>
      </trkpt>
      <trkpt lat="48.73368" lon="7.18883">
        <ele>304.8</ele>
        <time>2023-09-21T15:16:15Z</time>
      </trkpt>
      <trkpt lat="48.73387" lon="7.18873">
        <ele>307.6</ele>
        <time>2023-09-21T15:16:23Z</time>
      </trkpt>
      <trkpt lat="48.73406" lon="7.18864">
        <ele>310.5</ele>
        <time>2023-09-21T15:16:29Z</time>
      </trkpt>
      <trkpt lat="48.73427" lon="7.18858">
        <ele>313.2</ele>
        <time>2023-09-21T15:16:35Z</time>
      </trkpt>
      <trkpt lat="48.73445" lon="7.18855">
        <ele>315</ele>
        <time>2023-09-21T15:16:40Z</time>
      </trkpt>
      <trkpt lat="48.73465" lon="7.18852">
        <ele>316.9</ele>
        <time>2023-09-21T15:16:45Z</time>
      </trkpt>
      <trkpt lat="48.73482" lon="7.18847">
        <ele>318.5</ele>
        <time>2023-09-21T15:16:50Z</time>
      </trkpt>
      <trkpt lat="48.735" lon="7.18856">
        <ele>319.7</ele>
        <time>2023-09-21T15:16:55Z</time>
      </trkpt>
      <trkpt lat="48.73518" lon="7.18854">
        <ele>320.6</ele>
        <time>2023-09-21T15:16:59Z</time>
      </trkpt>
      <trkpt lat="48.73537" lon="7.18846">
        <ele>321.7</ele>
        <time>2023-09-21T15:17:04Z</time>
      </trkpt>
      <trkpt lat="48.73557" lon="7.18844">
        <ele>323.1</ele>
        <time>2023-09-21T15:17:09Z</time>
      </trkpt>
      <trkpt lat="48.73578" lon="7.18839">
        <ele>324.7</ele>
        <time>2023-09-21T15:17:14Z</time>
      </trkpt>
      <trkpt lat="48.73599" lon="7.18845">
        <ele>326</ele>
        <time>2023-09-21T15:17:19Z</time>
      </trkpt>
      <trkpt lat="48.73617" lon="7.18855">
        <ele>327.1</ele>
        <time>2023-09-21T15:17:24Z</time>
      </trkpt>
      <trkpt lat="48.7364" lon="7.18858">
        <ele>328.1</ele>
        <time>2023-09-21T15:17:30Z</time>
      </trkpt>
      <trkpt lat="48.7366" lon="7.18857">
        <ele>329.2</ele>
        <time>2023-09-21T15:17:36Z</time>
      </trkpt>
      <trkpt lat="48.73681" lon="7.18863">
        <ele>330.5</ele>
        <time>2023-09-21T15:17:41Z</time>
      </trkpt>
      <trkpt lat="48.73699" lon="7.18867">
        <ele>331.7</ele>
        <time>2023-09-21T15:17:45Z</time>
      </trkpt>
      <trkpt lat="48.7372" lon="7.1887">
        <ele>332.9</ele>
        <time>2023-09-21T15:17:51Z</time>
      </trkpt>
      <trkpt lat="48.73744" lon="7.1887">
        <ele>334.3</ele>
        <time>2023-09-21T15:17:57Z</time>
      </trkpt>
      <trkpt lat="48.73766" lon="7.18873">
        <ele>335.2</ele>
        <time>2023-09-21T15:18:02Z</time>
      </trkpt>
      <trkpt lat="48.73779" lon="7.18896">
        <ele>336.3</ele>
        <time>2023-09-21T15:18:07Z</time>
      </trkpt>
      <trkpt lat="48.73796" lon="7.18906">
        <ele>337.2</ele>
        <time>2023-09-21T15:18:11Z</time>
      </trkpt>
      <trkpt lat="48.73815" lon="7.1891">
        <ele>337.9</ele>
        <time>2023-09-21T15:18:14Z</time>
      </trkpt>
      <trkpt lat="48.73837" lon="7.18924">
        <ele>338.8</ele>
        <time>2023-09-21T15:18:20Z</time>
      </trkpt>
      <trkpt lat="48.73852" lon="7.18941">
        <ele>339.6</ele>
        <time>2023-09-21T15:18:25Z</time>
      </trkpt>
      <trkpt lat="48.73869" lon="7.18952">
        <ele>340.3</ele>
        <time>2023-09-21T15:18:30Z</time>
      </trkpt>
      <trkpt lat="48.73891" lon="7.18968">
        <ele>341.3</ele>
        <time>2023-09-21T15:18:35Z</time>
      </trkpt>
      <trkpt lat="48.73911" lon="7.1898">
        <ele>342</ele>
        <time>2023-09-21T15:18:40Z</time>
      </trkpt>
      <trkpt lat="48.73932" lon="7.18993">
        <ele>342.9</ele>
        <time>2023-09-21T15:18:44Z</time>
      </trkpt>
      <trkpt lat="48.73939" lon="7.19001">
        <ele>343.3</ele>
        <time>2023-09-21T15:18:46Z</time>
      </trkpt>
      <trkpt lat="48.73956" lon="7.19018">
        <ele>343.9</ele>
        <time>2023-09-21T15:18:51Z</time>
      </trkpt>
      <trkpt lat="48.73972" lon="7.19037">
        <ele>344.5</ele>
        <time>2023-09-21T15:18:56Z</time>
      </trkpt>
      <trkpt lat="48.73987" lon="7.19052">
        <ele>344.7</ele>
        <time>2023-09-21T15:19:00Z</time>
      </trkpt>
      <trkpt lat="48.73992" lon="7.19054">
        <ele>344.4</ele>
        <time>2023-09-21T15:19:01Z</time>
      </trkpt>
      <trkpt lat="48.74009" lon="7.19063">
        <ele>344.7</ele>
        <time>2023-09-21T15:19:05Z</time>
      </trkpt>
      <trkpt lat="48.74016" lon="7.19069">
        <ele>344.8</ele>
        <time>2023-09-21T15:19:07Z</time>
      </trkpt>
      <trkpt lat="48.74029" lon="7.19085">
        <ele>345.6</ele>
        <time>2023-09-21T15:19:11Z</time>
      </trkpt>
      <trkpt lat="48.74041" lon="7.19104">
        <ele>346.1</ele>
        <time>2023-09-21T15:19:15Z</time>
      </trkpt>
      <trkpt lat="48.74049" lon="7.19112">
        <ele>346.2</ele>
        <time>2023-09-21T15:19:17Z</time>
      </trkpt>
      <trkpt lat="48.74066" lon="7.1913">
        <ele>346.6</ele>
        <time>2023-09-21T15:19:21Z</time>
      </trkpt>
      <trkpt lat="48.74081" lon="7.19155">
        <ele>347</ele>
        <time>2023-09-21T15:19:26Z</time>
      </trkpt>
      <trkpt lat="48.74095" lon="7.19174">
        <ele>347.5</ele>
        <time>2023-09-21T15:19:30Z</time>
      </trkpt>
      <trkpt lat="48.74107" lon="7.19199">
        <ele>347.7</ele>
        <time>2023-09-21T15:19:35Z</time>
      </trkpt>
      <trkpt lat="48.74109" lon="7.19204">
        <ele>347.5</ele>
        <time>2023-09-21T15:19:36Z</time>
      </trkpt>
      <trkpt lat="48.74114" lon="7.19227">
        <ele>347.7</ele>
        <time>2023-09-21T15:19:40Z</time>
      </trkpt>
      <trkpt lat="48.74122" lon="7.19255">
        <ele>347.8</ele>
        <time>2023-09-21T15:19:45Z</time>
      </trkpt>
      <trkpt lat="48.74129" lon="7.19268">
        <ele>347.5</ele>
        <time>2023-09-21T15:19:48Z</time>
      </trkpt>
      <trkpt lat="48.74139" lon="7.19281">
        <ele>347.3</ele>
        <time>2023-09-21T15:19:51Z</time>
      </trkpt>
      <trkpt lat="48.74143" lon="7.19291">
        <ele>347.1</ele>
        <time>2023-09-21T15:19:53Z</time>
      </trkpt>
      <trkpt lat="48.74155" lon="7.19314">
        <ele>346.7</ele>
        <time>2023-09-21T15:19:58Z</time>
      </trkpt>
      <trkpt lat="48.74174" lon="7.1933">
        <ele>346.2</ele>
        <time>2023-09-21T15:20:03Z</time>
      </trkpt>
      <trkpt lat="48.74182" lon="7.19334">
        <ele>345.8</ele>
        <time>2023-09-21T15:20:05Z</time>
      </trkpt>
      <trkpt lat="48.74191" lon="7.19335">
        <ele>345.4</ele>
        <time>2023-09-21T15:20:07Z</time>
      </trkpt>
      <trkpt lat="48.74203" lon="7.19332">
        <ele>345</ele>
        <time>2023-09-21T15:20:10Z</time>
      </trkpt>
      <trkpt lat="48.7422" lon="7.19319">
        <ele>344.6</ele>
        <time>2023-09-21T15:20:15Z</time>
      </trkpt>
      <trkpt lat="48.74228" lon="7.19316">
        <ele>344.2</ele>
        <time>2023-09-21T15:20:17Z</time>
      </trkpt>
      <trkpt lat="48.74247" lon="7.19308">
        <ele>344</ele>
        <time>2023-09-21T15:20:22Z</time>
      </trkpt>
      <trkpt lat="48.74264" lon="7.19293">
        <ele>343.9</ele>
        <time>2023-09-21T15:20:27Z</time>
      </trkpt>
      <trkpt lat="48.74268" lon="7.19281">
        <ele>343.7</ele>
        <time>2023-09-21T15:20:29Z</time>
      </trkpt>
      <trkpt lat="48.74275" lon="7.19263">
        <ele>343.8</ele>
        <time>2023-09-21T15:20:32Z</time>
      </trkpt>
      <trkpt lat="48.74282" lon="7.19246">
        <ele>343.9</ele>
        <time>2023-09-21T15:20:35Z</time>
      </trkpt>
      <trkpt lat="48.74288" lon="7.19238">
        <ele>343.9</ele>
        <time>2023-09-21T15:20:37Z</time>
      </trkpt>
      <trkpt lat="48.74304" lon="7.1923">
        <ele>344.2</ele>
        <time>2023-09-21T15:20:41Z</time>
      </trkpt>
      <trkpt lat="48.74321" lon="7.1922">
        <ele>344.1</ele>
        <time>2023-09-21T15:20:45Z</time>
      </trkpt>
      <trkpt lat="48.74337" lon="7.19208">
        <ele>344</ele>
        <time>2023-09-21T15:20:49Z</time>
      </trkpt>
      <trkpt lat="48.74348" lon="7.19195">
        <ele>343.9</ele>
        <time>2023-09-21T15:20:52Z</time>
      </trkpt>
      <trkpt lat="48.74365" lon="7.19172">
        <ele>344.1</ele>
        <time>2023-09-21T15:20:57Z</time>
      </trkpt>
      <trkpt lat="48.74378" lon="7.19152">
        <ele>344.6</ele>
        <time>2023-09-21T15:21:01Z</time>
      </trkpt>
      <trkpt lat="48.74391" lon="7.19131">
        <ele>345.3</ele>
        <time>2023-09-21T15:21:05Z</time>
      </trkpt>
      <trkpt lat="48.74397" lon="7.19122">
        <ele>345.3</ele>
        <time>2023-09-21T15:21:07Z</time>
      </trkpt>
      <trkpt lat="48.74405" lon="7.1912">
        <ele>345.1</ele>
        <time>2023-09-21T15:21:09Z</time>
      </trkpt>
      <trkpt lat="48.74415" lon="7.19121">
        <ele>344.8</ele>
        <time>2023-09-21T15:21:12Z</time>
      </trkpt>
      <trkpt lat="48.74433" lon="7.19126">
        <ele>344.3</ele>
        <time>2023-09-21T15:21:18Z</time>
      </trkpt>
      <trkpt lat="48.74453" lon="7.19133">
        <ele>343.9</ele>
        <time>2023-09-21T15:21:25Z</time>
      </trkpt>
      <trkpt lat="48.74471" lon="7.19138">
        <ele>343.3</ele>
        <time>2023-09-21T15:21:31Z</time>
      </trkpt>
      <trkpt lat="48.74488" lon="7.19146">
        <ele>342.6</ele>
        <time>2023-09-21T15:21:37Z</time>
      </trkpt>
      <trkpt lat="48.74509" lon="7.19155">
        <ele>341.9</ele>
        <time>2023-09-21T15:21:43Z</time>
      </trkpt>
      <trkpt lat="48.74527" lon="7.19164">
        <ele>341.5</ele>
        <time>2023-09-21T15:21:48Z</time>
      </trkpt>
      <trkpt lat="48.74546" lon="7.1917">
        <ele>340.9</ele>
        <time>2023-09-21T15:21:53Z</time>
      </trkpt>
      <trkpt lat="48.74563" lon="7.19179">
        <ele>340.5</ele>
        <time>2023-09-21T15:21:58Z</time>
      </trkpt>
      <trkpt lat="48.74582" lon="7.19188">
        <ele>340.1</ele>
        <time>2023-09-21T15:22:04Z</time>
      </trkpt>
      <trkpt lat="48.74601" lon="7.192">
        <ele>339.8</ele>
        <time>2023-09-21T15:22:10Z</time>
      </trkpt>
      <trkpt lat="48.7462" lon="7.19212">
        <ele>339.5</ele>
        <time>2023-09-21T15:22:16Z</time>
      </trkpt>
      <trkpt lat="48.74639" lon="7.19222">
        <ele>339.2</ele>
        <time>2023-09-21T15:22:22Z</time>
      </trkpt>
      <trkpt lat="48.74658" lon="7.19233">
        <ele>338.9</ele>
        <time>2023-09-21T15:22:28Z</time>
      </trkpt>
      <trkpt lat="48.74675" lon="7.19244">
        <ele>338.7</ele>
        <time>2023-09-21T15:22:34Z</time>
      </trkpt>
      <trkpt lat="48.74695" lon="7.19256">
        <ele>338.3</ele>
        <time>2023-09-21T15:22:40Z</time>
      </trkpt>
      <trkpt lat="48.74715" lon="7.19266">
        <ele>338</ele>
        <time>2023-09-21T15:22:46Z</time>
      </trkpt>
      <trkpt lat="48.74732" lon="7.19254">
        <ele>337.6</ele>
        <time>2023-09-21T15:22:52Z</time>
      </trkpt>
      <trkpt lat="48.7475" lon="7.19237">
        <ele>337.3</ele>
        <time>2023-09-21T15:22:58Z</time>
      </trkpt>
      <trkpt lat="48.74765" lon="7.19217">
        <ele>336.7</ele>
        <time>2023-09-21T15:23:04Z</time>
      </trkpt>
      <trkpt lat="48.7478" lon="7.19195">
        <ele>336.2</ele>
        <time>2023-09-21T15:23:10Z</time>
      </trkpt>
      <trkpt lat="48.74796" lon="7.19181">
        <ele>335.3</ele>
        <time>2023-09-21T15:23:15Z</time>
      </trkpt>
      <trkpt lat="48.74814" lon="7.1917">
        <ele>334.3</ele>
        <time>2023-09-21T15:23:20Z</time>
      </trkpt>
      <trkpt lat="48.74828" lon="7.19154">
        <ele>333.6</ele>
        <time>2023-09-21T15:23:25Z</time>
      </trkpt>
      <trkpt lat="48.74842" lon="7.1913">
        <ele>332.9</ele>
        <time>2023-09-21T15:23:31Z</time>
      </trkpt>
      <trkpt lat="48.74845" lon="7.19103">
        <ele>333.7</ele>
        <time>2023-09-21T15:23:38Z</time>
      </trkpt>
      <trkpt lat="48.74835" lon="7.19079">
        <ele>335.1</ele>
        <time>2023-09-21T15:23:44Z</time>
      </trkpt>
      <trkpt lat="48.74826" lon="7.19053">
        <ele>335.6</ele>
        <time>2023-09-21T15:23:51Z</time>
      </trkpt>
      <trkpt lat="48.74815" lon="7.19027">
        <ele>335.3</ele>
        <time>2023-09-21T15:23:59Z</time>
      </trkpt>
      <trkpt lat="48.74807" lon="7.19001">
        <ele>334.6</ele>
        <time>2023-09-21T15:24:05Z</time>
      </trkpt>
      <trkpt lat="48.74798" lon="7.18977">
        <ele>334</ele>
        <time>2023-09-21T15:24:10Z</time>
      </trkpt>
      <trkpt lat="48.74789" lon="7.1895">
        <ele>334</ele>
        <time>2023-09-21T15:24:16Z</time>
      </trkpt>
      <trkpt lat="48.74777" lon="7.18925">
        <ele>334.4</ele>
        <time>2023-09-21T15:24:22Z</time>
      </trkpt>
      <trkpt lat="48.74767" lon="7.18898">
        <ele>334.2</ele>
        <time>2023-09-21T15:24:28Z</time>
      </trkpt>
      <trkpt lat="48.74758" lon="7.18874">
        <ele>334.8</ele>
        <time>2023-09-21T15:24:34Z</time>
      </trkpt>
      <trkpt lat="48.74748" lon="7.1885">
        <ele>335.4</ele>
        <time>2023-09-21T15:24:40Z</time>
      </trkpt>
      <trkpt lat="48.74739" lon="7.18821">
        <ele>335.7</ele>
        <time>2023-09-21T15:24:46Z</time>
      </trkpt>
      <trkpt lat="48.7473" lon="7.18796">
        <ele>335.1</ele>
        <time>2023-09-21T15:24:52Z</time>
      </trkpt>
      <trkpt lat="48.7472" lon="7.1877">
        <ele>334.7</ele>
        <time>2023-09-21T15:24:58Z</time>
      </trkpt>
      <trkpt lat="48.74712" lon="7.18743">
        <ele>334.1</ele>
        <time>2023-09-21T15:25:04Z</time>
      </trkpt>
      <trkpt lat="48.74705" lon="7.18716">
        <ele>333.8</ele>
        <time>2023-09-21T15:25:10Z</time>
      </trkpt>
      <trkpt lat="48.74698" lon="7.1869">
        <ele>333.4</ele>
        <time>2023-09-21T15:25:16Z</time>
      </trkpt>
      <trkpt lat="48.74691" lon="7.18664">
        <ele>333.6</ele>
        <time>2023-09-21T15:25:21Z</time>
      </trkpt>
      <trkpt lat="48.74681" lon="7.18637">
        <ele>334</ele>
        <time>2023-09-21T15:25:27Z</time>
      </trkpt>
      <trkpt lat="48.74672" lon="7.18612">
        <ele>334.3</ele>
        <time>2023-09-21T15:25:33Z</time>
      </trkpt>
      <trkpt lat="48.74662" lon="7.18588">
        <ele>333.9</ele>
        <time>2023-09-21T15:25:38Z</time>
      </trkpt>
      <trkpt lat="48.74651" lon="7.18563">
        <ele>332.8</ele>
        <time>2023-09-21T15:25:44Z</time>
      </trkpt>
      <trkpt lat="48.74646" lon="7.18536">
        <ele>332.1</ele>
        <time>2023-09-21T15:25:50Z</time>
      </trkpt>
      <trkpt lat="48.74638" lon="7.18508">
        <ele>331.2</ele>
        <time>2023-09-21T15:25:57Z</time>
      </trkpt>
      <trkpt lat="48.7463" lon="7.18482">
        <ele>330.4</ele>
        <time>2023-09-21T15:26:03Z</time>
      </trkpt>
      <trkpt lat="48.74621" lon="7.18459">
        <ele>330</ele>
        <time>2023-09-21T15:26:08Z</time>
      </trkpt>
      <trkpt lat="48.74612" lon="7.18432">
        <ele>330</ele>
        <time>2023-09-21T15:26:14Z</time>
      </trkpt>
      <trkpt lat="48.74605" lon="7.18405">
        <ele>330.2</ele>
        <time>2023-09-21T15:26:20Z</time>
      </trkpt>
      <trkpt lat="48.74599" lon="7.18375">
        <ele>330.4</ele>
        <time>2023-09-21T15:26:27Z</time>
      </trkpt>
      <trkpt lat="48.74595" lon="7.18348">
        <ele>330.6</ele>
        <time>2023-09-21T15:26:33Z</time>
      </trkpt>
      <trkpt lat="48.74581" lon="7.18323">
        <ele>331.4</ele>
        <time>2023-09-21T15:26:40Z</time>
      </trkpt>
      <trkpt lat="48.74571" lon="7.18297">
        <ele>331.8</ele>
        <time>2023-09-21T15:26:47Z</time>
      </trkpt>
      <trkpt lat="48.74562" lon="7.18271">
        <ele>331.9</ele>
        <time>2023-09-21T15:26:53Z</time>
      </trkpt>
      <trkpt lat="48.74557" lon="7.18245">
        <ele>332</ele>
        <time>2023-09-21T15:27:00Z</time>
      </trkpt>
      <trkpt lat="48.7455" lon="7.18217">
        <ele>332.3</ele>
        <time>2023-09-21T15:27:06Z</time>
      </trkpt>
      <trkpt lat="48.74543" lon="7.18192">
        <ele>332.3</ele>
        <time>2023-09-21T15:27:11Z</time>
      </trkpt>
      <trkpt lat="48.74533" lon="7.18167">
        <ele>332.2</ele>
        <time>2023-09-21T15:27:17Z</time>
      </trkpt>
      <trkpt lat="48.74522" lon="7.1814">
        <ele>331.9</ele>
        <time>2023-09-21T15:27:23Z</time>
      </trkpt>
      <trkpt lat="48.74514" lon="7.18114">
        <ele>331.6</ele>
        <time>2023-09-21T15:27:29Z</time>
      </trkpt>
      <trkpt lat="48.74506" lon="7.18085">
        <ele>331.4</ele>
        <time>2023-09-21T15:27:36Z</time>
      </trkpt>
      <trkpt lat="48.74501" lon="7.18058">
        <ele>331.2</ele>
        <time>2023-09-21T15:27:42Z</time>
      </trkpt>
      <trkpt lat="48.74492" lon="7.18033">
        <ele>331.2</ele>
        <time>2023-09-21T15:27:48Z</time>
      </trkpt>
      <trkpt lat="48.7448" lon="7.1801">
        <ele>331.3</ele>
        <time>2023-09-21T15:27:55Z</time>
      </trkpt>
      <trkpt lat="48.74463" lon="7.17991">
        <ele>331.6</ele>
        <time>2023-09-21T15:28:01Z</time>
      </trkpt>
      <trkpt lat="48.74452" lon="7.17964">
        <ele>331.8</ele>
        <time>2023-09-21T15:28:08Z</time>
      </trkpt>
      <trkpt lat="48.74443" lon="7.1794">
        <ele>331.8</ele>
        <time>2023-09-21T15:28:14Z</time>
      </trkpt>
      <trkpt lat="48.74432" lon="7.17918">
        <ele>331.5</ele>
        <time>2023-09-21T15:28:20Z</time>
      </trkpt>
      <trkpt lat="48.74417" lon="7.17897">
        <ele>331.3</ele>
        <time>2023-09-21T15:28:27Z</time>
      </trkpt>
      <trkpt lat="48.74403" lon="7.1788">
        <ele>330.8</ele>
        <time>2023-09-21T15:28:34Z</time>
      </trkpt>
      <trkpt lat="48.74387" lon="7.17862">
        <ele>330.2</ele>
        <time>2023-09-21T15:28:41Z</time>
      </trkpt>
      <trkpt lat="48.74372" lon="7.17843">
        <ele>329.7</ele>
        <time>2023-09-21T15:28:48Z</time>
      </trkpt>
      <trkpt lat="48.74358" lon="7.17825">
        <ele>329.4</ele>
        <time>2023-09-21T15:28:54Z</time>
      </trkpt>
      <trkpt lat="48.7434" lon="7.17812">
        <ele>329.4</ele>
        <time>2023-09-21T15:29:01Z</time>
      </trkpt>
      <trkpt lat="48.74324" lon="7.17801">
        <ele>328.9</ele>
        <time>2023-09-21T15:29:07Z</time>
      </trkpt>
      <trkpt lat="48.74308" lon="7.17785">
        <ele>328.1</ele>
        <time>2023-09-21T15:29:14Z</time>
      </trkpt>
      <trkpt lat="48.74292" lon="7.17767">
        <ele>327</ele>
        <time>2023-09-21T15:29:22Z</time>
      </trkpt>
      <trkpt lat="48.74274" lon="7.17754">
        <ele>326.4</ele>
        <time>2023-09-21T15:29:29Z</time>
      </trkpt>
      <trkpt lat="48.74261" lon="7.17735">
        <ele>325.7</ele>
        <time>2023-09-21T15:29:37Z</time>
      </trkpt>
      <trkpt lat="48.74245" lon="7.17723">
        <ele>325.2</ele>
        <time>2023-09-21T15:29:44Z</time>
      </trkpt>
      <trkpt lat="48.74227" lon="7.17717">
        <ele>325.1</ele>
        <time>2023-09-21T15:29:52Z</time>
      </trkpt>
      <trkpt lat="48.74218" lon="7.17726">
        <ele>325.3</ele>
        <time>2023-09-21T15:29:58Z</time>
      </trkpt>
      <trkpt lat="48.74199" lon="7.17725">
        <ele>325.4</ele>
        <time>2023-09-21T15:30:08Z</time>
      </trkpt>
      <trkpt lat="48.74183" lon="7.17705">
        <ele>324.9</ele>
        <time>2023-09-21T15:30:16Z</time>
      </trkpt>
      <trkpt lat="48.74173" lon="7.17681">
        <ele>324.4</ele>
        <time>2023-09-21T15:30:25Z</time>
      </trkpt>
      <trkpt lat="48.74158" lon="7.17659">
        <ele>324.4</ele>
        <time>2023-09-21T15:30:32Z</time>
      </trkpt>
      <trkpt lat="48.74145" lon="7.17639">
        <ele>324.2</ele>
        <time>2023-09-21T15:30:39Z</time>
      </trkpt>
      <trkpt lat="48.74142" lon="7.17632">
        <ele>324.1</ele>
        <time>2023-09-21T15:30:42Z</time>
      </trkpt>
      <trkpt lat="48.74143" lon="7.17604">
        <ele>323.3</ele>
        <time>2023-09-21T15:30:49Z</time>
      </trkpt>
      <trkpt lat="48.74144" lon="7.176">
        <ele>323.2</ele>
        <time>2023-09-21T15:30:50Z</time>
      </trkpt>
      <trkpt lat="48.7416" lon="7.17577">
        <ele>322.3</ele>
        <time>2023-09-21T15:30:56Z</time>
      </trkpt>
      <trkpt lat="48.74175" lon="7.17562">
        <ele>321.2</ele>
        <time>2023-09-21T15:31:01Z</time>
      </trkpt>
      <trkpt lat="48.74191" lon="7.1755">
        <ele>320.1</ele>
        <time>2023-09-21T15:31:06Z</time>
      </trkpt>
      <trkpt lat="48.74208" lon="7.17533">
        <ele>318.9</ele>
        <time>2023-09-21T15:31:12Z</time>
      </trkpt>
      <trkpt lat="48.74227" lon="7.1752">
        <ele>317.9</ele>
        <time>2023-09-21T15:31:18Z</time>
      </trkpt>
      <trkpt lat="48.74245" lon="7.17507">
        <ele>317.1</ele>
        <time>2023-09-21T15:31:24Z</time>
      </trkpt>
      <trkpt lat="48.74263" lon="7.17494">
        <ele>316.3</ele>
        <time>2023-09-21T15:31:30Z</time>
      </trkpt>
      <trkpt lat="48.74261" lon="7.17465">
        <ele>316.6</ele>
        <time>2023-09-21T15:31:37Z</time>
      </trkpt>
      <trkpt lat="48.7425" lon="7.17439">
        <ele>316.9</ele>
        <time>2023-09-21T15:31:43Z</time>
      </trkpt>
      <trkpt lat="48.74239" lon="7.17414">
        <ele>316.9</ele>
        <time>2023-09-21T15:31:49Z</time>
      </trkpt>
      <trkpt lat="48.74229" lon="7.17389">
        <ele>316.9</ele>
        <time>2023-09-21T15:31:55Z</time>
      </trkpt>
      <trkpt lat="48.74219" lon="7.17364">
        <ele>316.9</ele>
        <time>2023-09-21T15:32:01Z</time>
      </trkpt>
      <trkpt lat="48.74209" lon="7.17339">
        <ele>316.8</ele>
        <time>2023-09-21T15:32:07Z</time>
      </trkpt>
      <trkpt lat="48.742" lon="7.17315">
        <ele>316.7</ele>
        <time>2023-09-21T15:32:13Z</time>
      </trkpt>
      <trkpt lat="48.7419" lon="7.17292">
        <ele>316.6</ele>
        <time>2023-09-21T15:32:19Z</time>
      </trkpt>
      <trkpt lat="48.7418" lon="7.1727">
        <ele>316.4</ele>
        <time>2023-09-21T15:32:25Z</time>
      </trkpt>
      <trkpt lat="48.74169" lon="7.17247">
        <ele>316.3</ele>
        <time>2023-09-21T15:32:31Z</time>
      </trkpt>
      <trkpt lat="48.74159" lon="7.17225">
        <ele>316.3</ele>
        <time>2023-09-21T15:32:37Z</time>
      </trkpt>
      <trkpt lat="48.74149" lon="7.17201">
        <ele>316.7</ele>
        <time>2023-09-21T15:32:44Z</time>
      </trkpt>
      <trkpt lat="48.74138" lon="7.17174">
        <ele>317.3</ele>
        <time>2023-09-21T15:32:51Z</time>
      </trkpt>
      <trkpt lat="48.74128" lon="7.17152">
        <ele>317.8</ele>
        <time>2023-09-21T15:32:57Z</time>
      </trkpt>
      <trkpt lat="48.74119" lon="7.17127">
        <ele>318.3</ele>
        <time>2023-09-21T15:33:03Z</time>
      </trkpt>
      <trkpt lat="48.7411" lon="7.17101">
        <ele>318.8</ele>
        <time>2023-09-21T15:33:10Z</time>
      </trkpt>
      <trkpt lat="48.74102" lon="7.17076">
        <ele>319.3</ele>
        <time>2023-09-21T15:33:16Z</time>
      </trkpt>
      <trkpt lat="48.74095" lon="7.1705">
        <ele>319.8</ele>
        <time>2023-09-21T15:33:22Z</time>
      </trkpt>
      <trkpt lat="48.74085" lon="7.17025">
        <ele>320.3</ele>
        <time>2023-09-21T15:33:28Z</time>
      </trkpt>
      <trkpt lat="48.74075" lon="7.17001">
        <ele>320.7</ele>
        <time>2023-09-21T15:33:34Z</time>
      </trkpt>
      <trkpt lat="48.74065" lon="7.16974">
        <ele>320.9</ele>
        <time>2023-09-21T15:33:41Z</time>
      </trkpt>
      <trkpt lat="48.74056" lon="7.16945">
        <ele>321.2</ele>
        <time>2023-09-21T15:33:48Z</time>
      </trkpt>
      <trkpt lat="48.74049" lon="7.16918">
        <ele>321.4</ele>
        <time>2023-09-21T15:33:54Z</time>
      </trkpt>
      <trkpt lat="48.7404" lon="7.1689">
        <ele>321.4</ele>
        <time>2023-09-21T15:34:00Z</time>
      </trkpt>
      <trkpt lat="48.74032" lon="7.16865">
        <ele>321.5</ele>
        <time>2023-09-21T15:34:06Z</time>
      </trkpt>
      <trkpt lat="48.7403" lon="7.16855">
        <ele>321.2</ele>
        <time>2023-09-21T15:34:12Z</time>
      </trkpt>
      <trkpt lat="48.74037" lon="7.16859">
        <ele>320.9</ele>
        <time>2023-09-21T15:34:15Z</time>
      </trkpt>
      <trkpt lat="48.74054" lon="7.16847">
        <ele>320.1</ele>
        <time>2023-09-21T15:34:21Z</time>
      </trkpt>
      <trkpt lat="48.74072" lon="7.16841">
        <ele>319</ele>
        <time>2023-09-21T15:34:27Z</time>
      </trkpt>
      <trkpt lat="48.74089" lon="7.1683">
        <ele>317.8</ele>
        <time>2023-09-21T15:34:33Z</time>
      </trkpt>
      <trkpt lat="48.74106" lon="7.16818">
        <ele>316.6</ele>
        <time>2023-09-21T15:34:39Z</time>
      </trkpt>
      <trkpt lat="48.74124" lon="7.16803">
        <ele>315.4</ele>
        <time>2023-09-21T15:34:46Z</time>
      </trkpt>
      <trkpt lat="48.74141" lon="7.16789">
        <ele>314.3</ele>
        <time>2023-09-21T15:34:53Z</time>
      </trkpt>
      <trkpt lat="48.74157" lon="7.16776">
        <ele>313.1</ele>
        <time>2023-09-21T15:34:59Z</time>
      </trkpt>
      <trkpt lat="48.74174" lon="7.16765">
        <ele>312</ele>
        <time>2023-09-21T15:35:04Z</time>
      </trkpt>
      <trkpt lat="48.74191" lon="7.16752">
        <ele>311</ele>
        <time>2023-09-21T15:35:10Z</time>
      </trkpt>
      <trkpt lat="48.74208" lon="7.16738">
        <ele>309.7</ele>
        <time>2023-09-21T15:35:16Z</time>
      </trkpt>
      <trkpt lat="48.74226" lon="7.16727">
        <ele>308.3</ele>
        <time>2023-09-21T15:35:22Z</time>
      </trkpt>
      <trkpt lat="48.74244" lon="7.16715">
        <ele>306.8</ele>
        <time>2023-09-21T15:35:29Z</time>
      </trkpt>
      <trkpt lat="48.74261" lon="7.16701">
        <ele>305.3</ele>
        <time>2023-09-21T15:35:36Z</time>
      </trkpt>
      <trkpt lat="48.74278" lon="7.16687">
        <ele>303.3</ele>
        <time>2023-09-21T15:35:43Z</time>
      </trkpt>
      <trkpt lat="48.74296" lon="7.16674">
        <ele>300.9</ele>
        <time>2023-09-21T15:35:49Z</time>
      </trkpt>
      <trkpt lat="48.74313" lon="7.16663">
        <ele>298.9</ele>
        <time>2023-09-21T15:35:55Z</time>
      </trkpt>
      <trkpt lat="48.74332" lon="7.1665">
        <ele>296.7</ele>
        <time>2023-09-21T15:36:01Z</time>
      </trkpt>
      <trkpt lat="48.74349" lon="7.16639">
        <ele>295.5</ele>
        <time>2023-09-21T15:36:07Z</time>
      </trkpt>
      <trkpt lat="48.74366" lon="7.16625">
        <ele>294.1</ele>
        <time>2023-09-21T15:36:13Z</time>
      </trkpt>
      <trkpt lat="48.74384" lon="7.16608">
        <ele>292.4</ele>
        <time>2023-09-21T15:36:19Z</time>
      </trkpt>
      <trkpt lat="48.74401" lon="7.16591">
        <ele>290.8</ele>
        <time>2023-09-21T15:36:26Z</time>
      </trkpt>
      <trkpt lat="48.74419" lon="7.16574">
        <ele>289.3</ele>
        <time>2023-09-21T15:36:32Z</time>
      </trkpt>
      <trkpt lat="48.74437" lon="7.16561">
        <ele>287.7</ele>
        <time>2023-09-21T15:36:38Z</time>
      </trkpt>
      <trkpt lat="48.74455" lon="7.16546">
        <ele>286.5</ele>
        <time>2023-09-21T15:36:44Z</time>
      </trkpt>
      <trkpt lat="48.74456" lon="7.16519">
        <ele>285.6</ele>
        <time>2023-09-21T15:36:51Z</time>
      </trkpt>
      <trkpt lat="48.74452" lon="7.1649">
        <ele>285.2</ele>
        <time>2023-09-21T15:36:58Z</time>
      </trkpt>
      <trkpt lat="48.74446" lon="7.16464">
        <ele>284.9</ele>
        <time>2023-09-21T15:37:05Z</time>
      </trkpt>
      <trkpt lat="48.74439" lon="7.16436">
        <ele>284.7</ele>
        <time>2023-09-21T15:37:13Z</time>
      </trkpt>
      <trkpt lat="48.74438" lon="7.16406">
        <ele>284.7</ele>
        <time>2023-09-21T15:37:21Z</time>
      </trkpt>
      <trkpt lat="48.7443" lon="7.16382">
        <ele>284.4</ele>
        <time>2023-09-21T15:37:27Z</time>
      </trkpt>
      <trkpt lat="48.74417" lon="7.16358">
        <ele>284.2</ele>
        <time>2023-09-21T15:37:33Z</time>
      </trkpt>
      <trkpt lat="48.74405" lon="7.16337">
        <ele>284.2</ele>
        <time>2023-09-21T15:37:39Z</time>
      </trkpt>
      <trkpt lat="48.74392" lon="7.16315">
        <ele>284.2</ele>
        <time>2023-09-21T15:37:46Z</time>
      </trkpt>
      <trkpt lat="48.74376" lon="7.16295">
        <ele>284.3</ele>
        <time>2023-09-21T15:37:53Z</time>
      </trkpt>
      <trkpt lat="48.74363" lon="7.16271">
        <ele>284.2</ele>
        <time>2023-09-21T15:38:00Z</time>
      </trkpt>
      <trkpt lat="48.74349" lon="7.16251">
        <ele>283.9</ele>
        <time>2023-09-21T15:38:06Z</time>
      </trkpt>
      <trkpt lat="48.74338" lon="7.1623">
        <ele>283.6</ele>
        <time>2023-09-21T15:38:12Z</time>
      </trkpt>
      <trkpt lat="48.74322" lon="7.16209">
        <ele>283.4</ele>
        <time>2023-09-21T15:38:19Z</time>
      </trkpt>
      <trkpt lat="48.74307" lon="7.16194">
        <ele>283.7</ele>
        <time>2023-09-21T15:38:26Z</time>
      </trkpt>
      <trkpt lat="48.74288" lon="7.16203">
        <ele>284.4</ele>
        <time>2023-09-21T15:38:36Z</time>
      </trkpt>
      <trkpt lat="48.74286" lon="7.16201">
        <ele>284.5</ele>
        <time>2023-09-21T15:38:37Z</time>
      </trkpt>
      <trkpt lat="48.74272" lon="7.16185">
        <ele>285.4</ele>
        <time>2023-09-21T15:38:44Z</time>
      </trkpt>
      <trkpt lat="48.74257" lon="7.16166">
        <ele>285.7</ele>
        <time>2023-09-21T15:38:51Z</time>
      </trkpt>
      <trkpt lat="48.74242" lon="7.16146">
        <ele>285.8</ele>
        <time>2023-09-21T15:38:58Z</time>
      </trkpt>
      <trkpt lat="48.74227" lon="7.16127">
        <ele>285.8</ele>
        <time>2023-09-21T15:39:05Z</time>
      </trkpt>
      <trkpt lat="48.74212" lon="7.16109">
        <ele>285.7</ele>
        <time>2023-09-21T15:39:11Z</time>
      </trkpt>
      <trkpt lat="48.74197" lon="7.16091">
        <ele>285.8</ele>
        <time>2023-09-21T15:39:18Z</time>
      </trkpt>
      <trkpt lat="48.74179" lon="7.16077">
        <ele>286.2</ele>
        <time>2023-09-21T15:39:26Z</time>
      </trkpt>
      <trkpt lat="48.74162" lon="7.16066">
        <ele>286.8</ele>
        <time>2023-09-21T15:39:33Z</time>
      </trkpt>
      <trkpt lat="48.74143" lon="7.16057">
        <ele>287.4</ele>
        <time>2023-09-21T15:39:41Z</time>
      </trkpt>
      <trkpt lat="48.74126" lon="7.16048">
        <ele>287.9</ele>
        <time>2023-09-21T15:39:48Z</time>
      </trkpt>
      <trkpt lat="48.74109" lon="7.16037">
        <ele>288.5</ele>
        <time>2023-09-21T15:39:55Z</time>
      </trkpt>
      <trkpt lat="48.74091" lon="7.16026">
        <ele>289.2</ele>
        <time>2023-09-21T15:40:03Z</time>
      </trkpt>
      <trkpt lat="48.74073" lon="7.16021">
        <ele>289.9</ele>
        <time>2023-09-21T15:40:10Z</time>
      </trkpt>
      <trkpt lat="48.74054" lon="7.16028">
        <ele>290.9</ele>
        <time>2023-09-21T15:40:18Z</time>
      </trkpt>
      <trkpt lat="48.74035" lon="7.16033">
        <ele>292</ele>
        <time>2023-09-21T15:40:26Z</time>
      </trkpt>
      <trkpt lat="48.74017" lon="7.16022">
        <ele>293</ele>
        <time>2023-09-21T15:40:33Z</time>
      </trkpt>
      <trkpt lat="48.74003" lon="7.16005">
        <ele>293.3</ele>
        <time>2023-09-21T15:40:40Z</time>
      </trkpt>
      <trkpt lat="48.73991" lon="7.15981">
        <ele>293.2</ele>
        <time>2023-09-21T15:40:47Z</time>
      </trkpt>
      <trkpt lat="48.73975" lon="7.15967">
        <ele>294.4</ele>
        <time>2023-09-21T15:40:55Z</time>
      </trkpt>
      <trkpt lat="48.73966" lon="7.15967">
        <ele>294.9</ele>
        <time>2023-09-21T15:40:59Z</time>
      </trkpt>
      <trkpt lat="48.73952" lon="7.15987">
        <ele>295.9</ele>
        <time>2023-09-21T15:41:09Z</time>
      </trkpt>
      <trkpt lat="48.73939" lon="7.16005">
        <ele>297</ele>
        <time>2023-09-21T15:41:18Z</time>
      </trkpt>
      <trkpt lat="48.7393" lon="7.16032">
        <ele>298</ele>
        <time>2023-09-21T15:41:27Z</time>
      </trkpt>
      <trkpt lat="48.73923" lon="7.16059">
        <ele>298.8</ele>
        <time>2023-09-21T15:41:35Z</time>
      </trkpt>
      <trkpt lat="48.73922" lon="7.16086">
        <ele>299.7</ele>
        <time>2023-09-21T15:41:42Z</time>
      </trkpt>
      <trkpt lat="48.7392" lon="7.16116">
        <ele>300.7</ele>
        <time>2023-09-21T15:41:50Z</time>
      </trkpt>
      <trkpt lat="48.73921" lon="7.16147">
        <ele>301.8</ele>
        <time>2023-09-21T15:41:58Z</time>
      </trkpt>
      <trkpt lat="48.73923" lon="7.16176">
        <ele>303</ele>
        <time>2023-09-21T15:42:05Z</time>
      </trkpt>
      <trkpt lat="48.73922" lon="7.16203">
        <ele>304.1</ele>
        <time>2023-09-21T15:42:12Z</time>
      </trkpt>
      <trkpt lat="48.73922" lon="7.16231">
        <ele>305.3</ele>
        <time>2023-09-21T15:42:19Z</time>
      </trkpt>
      <trkpt lat="48.73923" lon="7.1626">
        <ele>306.4</ele>
        <time>2023-09-21T15:42:26Z</time>
      </trkpt>
      <trkpt lat="48.73923" lon="7.16291">
        <ele>307.8</ele>
        <time>2023-09-21T15:42:33Z</time>
      </trkpt>
      <trkpt lat="48.73922" lon="7.16319">
        <ele>309.1</ele>
        <time>2023-09-21T15:42:40Z</time>
      </trkpt>
      <trkpt lat="48.73917" lon="7.16348">
        <ele>310.4</ele>
        <time>2023-09-21T15:42:48Z</time>
      </trkpt>
      <trkpt lat="48.73915" lon="7.16378">
        <ele>311.5</ele>
        <time>2023-09-21T15:42:56Z</time>
      </trkpt>
      <trkpt lat="48.7392" lon="7.16405">
        <ele>312.6</ele>
        <time>2023-09-21T15:43:02Z</time>
      </trkpt>
      <trkpt lat="48.73923" lon="7.16434">
        <ele>313.5</ele>
        <time>2023-09-21T15:43:09Z</time>
      </trkpt>
      <trkpt lat="48.73928" lon="7.16462">
        <ele>314.2</ele>
        <time>2023-09-21T15:43:16Z</time>
      </trkpt>
      <trkpt lat="48.73934" lon="7.16492">
        <ele>314.9</ele>
        <time>2023-09-21T15:43:22Z</time>
      </trkpt>
      <trkpt lat="48.73935" lon="7.1652">
        <ele>315.4</ele>
        <time>2023-09-21T15:43:28Z</time>
      </trkpt>
      <trkpt lat="48.7393" lon="7.16524">
        <ele>315.5</ele>
        <time>2023-09-21T15:43:30Z</time>
      </trkpt>
      <trkpt lat="48.7391" lon="7.16534">
        <ele>316.6</ele>
        <time>2023-09-21T15:43:37Z</time>
      </trkpt>
      <trkpt lat="48.73893" lon="7.16543">
        <ele>317.6</ele>
        <time>2023-09-21T15:43:43Z</time>
      </trkpt>
      <trkpt lat="48.73875" lon="7.16551">
        <ele>318.3</ele>
        <time>2023-09-21T15:43:50Z</time>
      </trkpt>
      <trkpt lat="48.73856" lon="7.16562">
        <ele>318.4</ele>
        <time>2023-09-21T15:43:57Z</time>
      </trkpt>
      <trkpt lat="48.73838" lon="7.16571">
        <ele>318.2</ele>
        <time>2023-09-21T15:44:04Z</time>
      </trkpt>
      <trkpt lat="48.73821" lon="7.16581">
        <ele>318.5</ele>
        <time>2023-09-21T15:44:11Z</time>
      </trkpt>
      <trkpt lat="48.73804" lon="7.16594">
        <ele>319</ele>
        <time>2023-09-21T15:44:18Z</time>
      </trkpt>
      <trkpt lat="48.73785" lon="7.16607">
        <ele>320.1</ele>
        <time>2023-09-21T15:44:24Z</time>
      </trkpt>
      <trkpt lat="48.73769" lon="7.16619">
        <ele>321.4</ele>
        <time>2023-09-21T15:44:30Z</time>
      </trkpt>
      <trkpt lat="48.73751" lon="7.16631">
        <ele>322.4</ele>
        <time>2023-09-21T15:44:37Z</time>
      </trkpt>
      <trkpt lat="48.73733" lon="7.16622">
        <ele>322.8</ele>
        <time>2023-09-21T15:44:43Z</time>
      </trkpt>
      <trkpt lat="48.73715" lon="7.16607">
        <ele>323</ele>
        <time>2023-09-21T15:44:49Z</time>
      </trkpt>
      <trkpt lat="48.73698" lon="7.16592">
        <ele>323.7</ele>
        <time>2023-09-21T15:44:55Z</time>
      </trkpt>
      <trkpt lat="48.73683" lon="7.16577">
        <ele>324.2</ele>
        <time>2023-09-21T15:45:01Z</time>
      </trkpt>
      <trkpt lat="48.73666" lon="7.1656">
        <ele>324.1</ele>
        <time>2023-09-21T15:45:08Z</time>
      </trkpt>
      <trkpt lat="48.7366" lon="7.16565">
        <ele>324.2</ele>
        <time>2023-09-21T15:45:15Z</time>
      </trkpt>
      <trkpt lat="48.7366" lon="7.16566">
        <ele>324.3</ele>
        <time>2023-09-21T15:45:16Z</time>
      </trkpt>
      <trkpt lat="48.73655" lon="7.16566">
        <ele>324</ele>
        <time>2023-09-21T15:45:30Z</time>
      </trkpt>
      <trkpt lat="48.73653" lon="7.16565">
        <ele>324</ele>
        <time>2023-09-21T15:45:32Z</time>
      </trkpt>
      <trkpt lat="48.73643" lon="7.16569">
        <ele>323.5</ele>
        <time>2023-09-21T15:45:38Z</time>
      </trkpt>
      <trkpt lat="48.73639" lon="7.16597">
        <ele>324.2</ele>
        <time>2023-09-21T15:45:46Z</time>
      </trkpt>
      <trkpt lat="48.73635" lon="7.16625">
        <ele>324.7</ele>
        <time>2023-09-21T15:45:53Z</time>
      </trkpt>
      <trkpt lat="48.73632" lon="7.16654">
        <ele>325.5</ele>
        <time>2023-09-21T15:46:01Z</time>
      </trkpt>
      <trkpt lat="48.73628" lon="7.16681">
        <ele>326.8</ele>
        <time>2023-09-21T15:46:09Z</time>
      </trkpt>
      <trkpt lat="48.73625" lon="7.16708">
        <ele>327.9</ele>
        <time>2023-09-21T15:46:17Z</time>
      </trkpt>
      <trkpt lat="48.7362" lon="7.16738">
        <ele>328.7</ele>
        <time>2023-09-21T15:46:25Z</time>
      </trkpt>
      <trkpt lat="48.73611" lon="7.16763">
        <ele>329.7</ele>
        <time>2023-09-21T15:46:32Z</time>
      </trkpt>
      <trkpt lat="48.73594" lon="7.16767">
        <ele>327.9</ele>
        <time>2023-09-21T15:46:39Z</time>
      </trkpt>
      <trkpt lat="48.73575" lon="7.16766">
        <ele>326.7</ele>
        <time>2023-09-21T15:46:46Z</time>
      </trkpt>
      <trkpt lat="48.73555" lon="7.1677">
        <ele>326.2</ele>
        <time>2023-09-21T15:46:53Z</time>
      </trkpt>
      <trkpt lat="48.73538" lon="7.16781">
        <ele>326.5</ele>
        <time>2023-09-21T15:47:00Z</time>
      </trkpt>
      <trkpt lat="48.73519" lon="7.16792">
        <ele>327.1</ele>
        <time>2023-09-21T15:47:08Z</time>
      </trkpt>
      <trkpt lat="48.73501" lon="7.16795">
        <ele>327</ele>
        <time>2023-09-21T15:47:15Z</time>
      </trkpt>
      <trkpt lat="48.73481" lon="7.16788">
        <ele>325.7</ele>
        <time>2023-09-21T15:47:22Z</time>
      </trkpt>
      <trkpt lat="48.73464" lon="7.16777">
        <ele>325.2</ele>
        <time>2023-09-21T15:47:28Z</time>
      </trkpt>
      <trkpt lat="48.73445" lon="7.16763">
        <ele>324.8</ele>
        <time>2023-09-21T15:47:34Z</time>
      </trkpt>
      <trkpt lat="48.73437" lon="7.16738">
        <ele>324.6</ele>
        <time>2023-09-21T15:47:40Z</time>
      </trkpt>
      <trkpt lat="48.7344" lon="7.16707">
        <ele>324.7</ele>
        <time>2023-09-21T15:47:47Z</time>
      </trkpt>
      <trkpt lat="48.73443" lon="7.16679">
        <ele>324.8</ele>
        <time>2023-09-21T15:47:53Z</time>
      </trkpt>
      <trkpt lat="48.73435" lon="7.16653">
        <ele>324.9</ele>
        <time>2023-09-21T15:47:59Z</time>
      </trkpt>
      <trkpt lat="48.73418" lon="7.16636">
        <ele>325</ele>
        <time>2023-09-21T15:48:05Z</time>
      </trkpt>
      <trkpt lat="48.73402" lon="7.1662">
        <ele>325.1</ele>
        <time>2023-09-21T15:48:11Z</time>
      </trkpt>
      <trkpt lat="48.73386" lon="7.16604">
        <ele>325.2</ele>
        <time>2023-09-21T15:48:17Z</time>
      </trkpt>
      <trkpt lat="48.7337" lon="7.16585">
        <ele>325.1</ele>
        <time>2023-09-21T15:48:23Z</time>
      </trkpt>
      <trkpt lat="48.73354" lon="7.16567">
        <ele>324.9</ele>
        <time>2023-09-21T15:48:29Z</time>
      </trkpt>
      <trkpt lat="48.73339" lon="7.16549">
        <ele>324.8</ele>
        <time>2023-09-21T15:48:35Z</time>
      </trkpt>
      <trkpt lat="48.73324" lon="7.16533">
        <ele>324.8</ele>
        <time>2023-09-21T15:48:41Z</time>
      </trkpt>
      <trkpt lat="48.73306" lon="7.16543">
        <ele>324.8</ele>
        <time>2023-09-21T15:48:48Z</time>
      </trkpt>
      <trkpt lat="48.73294" lon="7.16568">
        <ele>324.9</ele>
        <time>2023-09-21T15:48:54Z</time>
      </trkpt>
      <trkpt lat="48.73283" lon="7.16594">
        <ele>325.1</ele>
        <time>2023-09-21T15:49:00Z</time>
      </trkpt>
      <trkpt lat="48.73272" lon="7.16617">
        <ele>325.5</ele>
        <time>2023-09-21T15:49:06Z</time>
      </trkpt>
      <trkpt lat="48.73261" lon="7.1664">
        <ele>325.9</ele>
        <time>2023-09-21T15:49:12Z</time>
      </trkpt>
      <trkpt lat="48.7325" lon="7.16663">
        <ele>326.5</ele>
        <time>2023-09-21T15:49:18Z</time>
      </trkpt>
      <trkpt lat="48.7324" lon="7.16685">
        <ele>327.2</ele>
        <time>2023-09-21T15:49:24Z</time>
      </trkpt>
      <trkpt lat="48.73228" lon="7.1671">
        <ele>327.9</ele>
        <time>2023-09-21T15:49:31Z</time>
      </trkpt>
      <trkpt lat="48.73216" lon="7.16731">
        <ele>328.4</ele>
        <time>2023-09-21T15:49:38Z</time>
      </trkpt>
      <trkpt lat="48.73204" lon="7.16757">
        <ele>329</ele>
        <time>2023-09-21T15:49:46Z</time>
      </trkpt>
      <trkpt lat="48.73192" lon="7.16778">
        <ele>329.4</ele>
        <time>2023-09-21T15:49:52Z</time>
      </trkpt>
      <trkpt lat="48.73175" lon="7.16778">
        <ele>329.1</ele>
        <time>2023-09-21T15:49:58Z</time>
      </trkpt>
      <trkpt lat="48.73165" lon="7.16755">
        <ele>328.7</ele>
        <time>2023-09-21T15:50:04Z</time>
      </trkpt>
      <trkpt lat="48.73155" lon="7.1673">
        <ele>328.5</ele>
        <time>2023-09-21T15:50:10Z</time>
      </trkpt>
      <trkpt lat="48.73146" lon="7.16703">
        <ele>328.3</ele>
        <time>2023-09-21T15:50:16Z</time>
      </trkpt>
      <trkpt lat="48.7314" lon="7.16675">
        <ele>328.1</ele>
        <time>2023-09-21T15:50:22Z</time>
      </trkpt>
      <trkpt lat="48.73134" lon="7.16646">
        <ele>327.9</ele>
        <time>2023-09-21T15:50:28Z</time>
      </trkpt>
      <trkpt lat="48.73128" lon="7.16619">
        <ele>327.6</ele>
        <time>2023-09-21T15:50:34Z</time>
      </trkpt>
      <trkpt lat="48.73121" lon="7.16591">
        <ele>327.3</ele>
        <time>2023-09-21T15:50:40Z</time>
      </trkpt>
      <trkpt lat="48.73115" lon="7.16562">
        <ele>327</ele>
        <time>2023-09-21T15:50:46Z</time>
      </trkpt>
      <trkpt lat="48.73109" lon="7.16534">
        <ele>326.7</ele>
        <time>2023-09-21T15:50:52Z</time>
      </trkpt>
      <trkpt lat="48.73103" lon="7.16506">
        <ele>326.4</ele>
        <time>2023-09-21T15:50:58Z</time>
      </trkpt>
      <trkpt lat="48.73095" lon="7.16477">
        <ele>326</ele>
        <time>2023-09-21T15:51:04Z</time>
      </trkpt>
      <trkpt lat="48.73089" lon="7.16449">
        <ele>325.7</ele>
        <time>2023-09-21T15:51:10Z</time>
      </trkpt>
      <trkpt lat="48.73083" lon="7.16422">
        <ele>325.3</ele>
        <time>2023-09-21T15:51:16Z</time>
      </trkpt>
      <trkpt lat="48.73076" lon="7.16392">
        <ele>325</ele>
        <time>2023-09-21T15:51:23Z</time>
      </trkpt>
      <trkpt lat="48.7307" lon="7.16365">
        <ele>324.7</ele>
        <time>2023-09-21T15:51:29Z</time>
      </trkpt>
      <trkpt lat="48.73064" lon="7.16338">
        <ele>324.4</ele>
        <time>2023-09-21T15:51:35Z</time>
      </trkpt>
      <trkpt lat="48.73058" lon="7.16312">
        <ele>324</ele>
        <time>2023-09-21T15:51:41Z</time>
      </trkpt>
      <trkpt lat="48.73053" lon="7.16285">
        <ele>323.7</ele>
        <time>2023-09-21T15:51:47Z</time>
      </trkpt>
      <trkpt lat="48.73046" lon="7.16255">
        <ele>323.4</ele>
        <time>2023-09-21T15:51:54Z</time>
      </trkpt>
      <trkpt lat="48.7304" lon="7.16228">
        <ele>323</ele>
        <time>2023-09-21T15:52:00Z</time>
      </trkpt>
      <trkpt lat="48.73032" lon="7.16202">
        <ele>322.7</ele>
        <time>2023-09-21T15:52:06Z</time>
      </trkpt>
      <trkpt lat="48.73025" lon="7.16176">
        <ele>322.3</ele>
        <time>2023-09-21T15:52:12Z</time>
      </trkpt>
      <trkpt lat="48.73018" lon="7.16148">
        <ele>322</ele>
        <time>2023-09-21T15:52:18Z</time>
      </trkpt>
      <trkpt lat="48.73013" lon="7.16118">
        <ele>321.6</ele>
        <time>2023-09-21T15:52:24Z</time>
      </trkpt>
      <trkpt lat="48.73006" lon="7.1609">
        <ele>321.3</ele>
        <time>2023-09-21T15:52:30Z</time>
      </trkpt>
      <trkpt lat="48.72998" lon="7.16064">
        <ele>321</ele>
        <time>2023-09-21T15:52:36Z</time>
      </trkpt>
      <trkpt lat="48.7299" lon="7.16038">
        <ele>320.8</ele>
        <time>2023-09-21T15:52:42Z</time>
      </trkpt>
      <trkpt lat="48.72983" lon="7.1601">
        <ele>320.6</ele>
        <time>2023-09-21T15:52:49Z</time>
      </trkpt>
      <trkpt lat="48.72976" lon="7.15984">
        <ele>320.3</ele>
        <time>2023-09-21T15:52:56Z</time>
      </trkpt>
      <trkpt lat="48.72967" lon="7.15956">
        <ele>320.1</ele>
        <time>2023-09-21T15:53:04Z</time>
      </trkpt>
      <trkpt lat="48.72957" lon="7.15929">
        <ele>319.9</ele>
        <time>2023-09-21T15:53:10Z</time>
      </trkpt>
      <trkpt lat="48.7295" lon="7.159">
        <ele>319.5</ele>
        <time>2023-09-21T15:53:16Z</time>
      </trkpt>
      <trkpt lat="48.72941" lon="7.15871">
        <ele>319.3</ele>
        <time>2023-09-21T15:53:22Z</time>
      </trkpt>
      <trkpt lat="48.72931" lon="7.15843">
        <ele>319</ele>
        <time>2023-09-21T15:53:28Z</time>
      </trkpt>
      <trkpt lat="48.72921" lon="7.15814">
        <ele>318.7</ele>
        <time>2023-09-21T15:53:34Z</time>
      </trkpt>
      <trkpt lat="48.72911" lon="7.15788">
        <ele>318.5</ele>
        <time>2023-09-21T15:53:40Z</time>
      </trkpt>
      <trkpt lat="48.729" lon="7.15762">
        <ele>318.4</ele>
        <time>2023-09-21T15:53:46Z</time>
      </trkpt>
      <trkpt lat="48.72888" lon="7.15738">
        <ele>318.3</ele>
        <time>2023-09-21T15:53:52Z</time>
      </trkpt>
      <trkpt lat="48.72877" lon="7.15716">
        <ele>318.2</ele>
        <time>2023-09-21T15:53:58Z</time>
      </trkpt>
      <trkpt lat="48.72865" lon="7.15694">
        <ele>318.1</ele>
        <time>2023-09-21T15:54:04Z</time>
      </trkpt>
      <trkpt lat="48.72854" lon="7.15669">
        <ele>318.2</ele>
        <time>2023-09-21T15:54:10Z</time>
      </trkpt>
      <trkpt lat="48.72842" lon="7.15648">
        <ele>318.6</ele>
        <time>2023-09-21T15:54:16Z</time>
      </trkpt>
      <trkpt lat="48.72824" lon="7.15657">
        <ele>320.1</ele>
        <time>2023-09-21T15:54:24Z</time>
      </trkpt>
      <trkpt lat="48.72812" lon="7.15679">
        <ele>320.7</ele>
        <time>2023-09-21T15:54:30Z</time>
      </trkpt>
      <trkpt lat="48.728" lon="7.157">
        <ele>321.4</ele>
        <time>2023-09-21T15:54:36Z</time>
      </trkpt>
      <trkpt lat="48.72787" lon="7.1572">
        <ele>322.1</ele>
        <time>2023-09-21T15:54:42Z</time>
      </trkpt>
      <trkpt lat="48.72775" lon="7.15742">
        <ele>322.8</ele>
        <time>2023-09-21T15:54:48Z</time>
      </trkpt>
      <trkpt lat="48.72765" lon="7.15764">
        <ele>323.3</ele>
        <time>2023-09-21T15:54:54Z</time>
      </trkpt>
      <trkpt lat="48.72754" lon="7.15788">
        <ele>323.7</ele>
        <time>2023-09-21T15:55:00Z</time>
      </trkpt>
      <trkpt lat="48.72743" lon="7.15814">
        <ele>324</ele>
        <time>2023-09-21T15:55:07Z</time>
      </trkpt>
      <trkpt lat="48.72731" lon="7.1584">
        <ele>324.3</ele>
        <time>2023-09-21T15:55:14Z</time>
      </trkpt>
      <trkpt lat="48.7272" lon="7.15863">
        <ele>324.5</ele>
        <time>2023-09-21T15:55:20Z</time>
      </trkpt>
      <trkpt lat="48.72707" lon="7.15887">
        <ele>324.6</ele>
        <time>2023-09-21T15:55:26Z</time>
      </trkpt>
      <trkpt lat="48.72695" lon="7.15908">
        <ele>324.5</ele>
        <time>2023-09-21T15:55:32Z</time>
      </trkpt>
      <trkpt lat="48.7268" lon="7.15925">
        <ele>324.3</ele>
        <time>2023-09-21T15:55:38Z</time>
      </trkpt>
      <trkpt lat="48.72663" lon="7.15934">
        <ele>324</ele>
        <time>2023-09-21T15:55:44Z</time>
      </trkpt>
      <trkpt lat="48.72643" lon="7.15932">
        <ele>323.8</ele>
        <time>2023-09-21T15:55:50Z</time>
      </trkpt>
      <trkpt lat="48.72624" lon="7.15937">
        <ele>323.5</ele>
        <time>2023-09-21T15:55:56Z</time>
      </trkpt>
      <trkpt lat="48.72604" lon="7.15942">
        <ele>323.3</ele>
        <time>2023-09-21T15:56:02Z</time>
      </trkpt>
      <trkpt lat="48.72585" lon="7.1594">
        <ele>323.1</ele>
        <time>2023-09-21T15:56:08Z</time>
      </trkpt>
      <trkpt lat="48.72566" lon="7.15943">
        <ele>322.9</ele>
        <time>2023-09-21T15:56:14Z</time>
      </trkpt>
      <trkpt lat="48.72546" lon="7.15947">
        <ele>322.8</ele>
        <time>2023-09-21T15:56:20Z</time>
      </trkpt>
      <trkpt lat="48.72526" lon="7.15953">
        <ele>322.7</ele>
        <time>2023-09-21T15:56:26Z</time>
      </trkpt>
      <trkpt lat="48.72507" lon="7.15957">
        <ele>322.8</ele>
        <time>2023-09-21T15:56:32Z</time>
      </trkpt>
      <trkpt lat="48.72489" lon="7.15962">
        <ele>323</ele>
        <time>2023-09-21T15:56:38Z</time>
      </trkpt>
      <trkpt lat="48.7247" lon="7.15969">
        <ele>323.2</ele>
        <time>2023-09-21T15:56:44Z</time>
      </trkpt>
      <trkpt lat="48.72452" lon="7.15978">
        <ele>323.4</ele>
        <time>2023-09-21T15:56:50Z</time>
      </trkpt>
      <trkpt lat="48.72432" lon="7.15983">
        <ele>323.7</ele>
        <time>2023-09-21T15:56:57Z</time>
      </trkpt>
      <trkpt lat="48.7243" lon="7.15975">
        <ele>323.9</ele>
        <time>2023-09-21T15:56:59Z</time>
      </trkpt>
      <trkpt lat="48.7243" lon="7.15946">
        <ele>324.4</ele>
        <time>2023-09-21T15:57:05Z</time>
      </trkpt>
      <trkpt lat="48.72431" lon="7.15918">
        <ele>324.8</ele>
        <time>2023-09-21T15:57:11Z</time>
      </trkpt>
      <trkpt lat="48.72434" lon="7.1589">
        <ele>325.1</ele>
        <time>2023-09-21T15:57:17Z</time>
      </trkpt>
      <trkpt lat="48.72435" lon="7.15861">
        <ele>325.3</ele>
        <time>2023-09-21T15:57:23Z</time>
      </trkpt>
      <trkpt lat="48.72437" lon="7.15832">
        <ele>325.2</ele>
        <time>2023-09-21T15:57:29Z</time>
      </trkpt>
      <trkpt lat="48.72439" lon="7.15804">
        <ele>324.9</ele>
        <time>2023-09-21T15:57:35Z</time>
      </trkpt>
      <trkpt lat="48.72441" lon="7.15774">
        <ele>324.4</ele>
        <time>2023-09-21T15:57:41Z</time>
      </trkpt>
      <trkpt lat="48.72442" lon="7.15745">
        <ele>324</ele>
        <time>2023-09-21T15:57:47Z</time>
      </trkpt>
      <trkpt lat="48.72443" lon="7.15717">
        <ele>323.5</ele>
        <time>2023-09-21T15:57:53Z</time>
      </trkpt>
      <trkpt lat="48.72443" lon="7.15686">
        <ele>322.9</ele>
        <time>2023-09-21T15:57:59Z</time>
      </trkpt>
      <trkpt lat="48.72445" lon="7.15657">
        <ele>322.3</ele>
        <time>2023-09-21T15:58:05Z</time>
      </trkpt>
      <trkpt lat="48.72446" lon="7.15629">
        <ele>321.6</ele>
        <time>2023-09-21T15:58:11Z</time>
      </trkpt>
      <trkpt lat="48.72447" lon="7.156">
        <ele>321</ele>
        <time>2023-09-21T15:58:17Z</time>
      </trkpt>
      <trkpt lat="48.72448" lon="7.15571">
        <ele>320.3</ele>
        <time>2023-09-21T15:58:23Z</time>
      </trkpt>
      <trkpt lat="48.72451" lon="7.1554">
        <ele>319.6</ele>
        <time>2023-09-21T15:58:29Z</time>
      </trkpt>
      <trkpt lat="48.72452" lon="7.15509">
        <ele>318.8</ele>
        <time>2023-09-21T15:58:35Z</time>
      </trkpt>
      <trkpt lat="48.72455" lon="7.15478">
        <ele>318</ele>
        <time>2023-09-21T15:58:41Z</time>
      </trkpt>
      <trkpt lat="48.72455" lon="7.15447">
        <ele>317.1</ele>
        <time>2023-09-21T15:58:47Z</time>
      </trkpt>
      <trkpt lat="48.72457" lon="7.15418">
        <ele>316.2</ele>
        <time>2023-09-21T15:58:53Z</time>
      </trkpt>
      <trkpt lat="48.72459" lon="7.15388">
        <ele>315.3</ele>
        <time>2023-09-21T15:58:59Z</time>
      </trkpt>
      <trkpt lat="48.72461" lon="7.15357">
        <ele>314.4</ele>
        <time>2023-09-21T15:59:05Z</time>
      </trkpt>
      <trkpt lat="48.72462" lon="7.15327">
        <ele>313.4</ele>
        <time>2023-09-21T15:59:11Z</time>
      </trkpt>
      <trkpt lat="48.72464" lon="7.15296">
        <ele>312.5</ele>
        <time>2023-09-21T15:59:17Z</time>
      </trkpt>
      <trkpt lat="48.72466" lon="7.15266">
        <ele>311.8</ele>
        <time>2023-09-21T15:59:23Z</time>
      </trkpt>
      <trkpt lat="48.72468" lon="7.15235">
        <ele>311</ele>
        <time>2023-09-21T15:59:29Z</time>
      </trkpt>
      <trkpt lat="48.7247" lon="7.15208">
        <ele>310.2</ele>
        <time>2023-09-21T15:59:35Z</time>
      </trkpt>
      <trkpt lat="48.72472" lon="7.1518">
        <ele>309.5</ele>
        <time>2023-09-21T15:59:41Z</time>
      </trkpt>
      <trkpt lat="48.72473" lon="7.1515">
        <ele>308.8</ele>
        <time>2023-09-21T15:59:48Z</time>
      </trkpt>
      <trkpt lat="48.72474" lon="7.15119">
        <ele>307.9</ele>
        <time>2023-09-21T15:59:55Z</time>
      </trkpt>
      <trkpt lat="48.72474" lon="7.15087">
        <ele>307</ele>
        <time>2023-09-21T16:00:01Z</time>
      </trkpt>
      <trkpt lat="48.72477" lon="7.1506">
        <ele>306.2</ele>
        <time>2023-09-21T16:00:06Z</time>
      </trkpt>
      <trkpt lat="48.72478" lon="7.15028">
        <ele>305.2</ele>
        <time>2023-09-21T16:00:12Z</time>
      </trkpt>
      <trkpt lat="48.72479" lon="7.14996">
        <ele>304.2</ele>
        <time>2023-09-21T16:00:18Z</time>
      </trkpt>
      <trkpt lat="48.72481" lon="7.14969">
        <ele>303.3</ele>
        <time>2023-09-21T16:00:23Z</time>
      </trkpt>
      <trkpt lat="48.72483" lon="7.1494">
        <ele>302.5</ele>
        <time>2023-09-21T16:00:28Z</time>
      </trkpt>
      <trkpt lat="48.72484" lon="7.14911">
        <ele>301.6</ele>
        <time>2023-09-21T16:00:33Z</time>
      </trkpt>
      <trkpt lat="48.72486" lon="7.1488">
        <ele>300.7</ele>
        <time>2023-09-21T16:00:39Z</time>
      </trkpt>
      <trkpt lat="48.72488" lon="7.1485">
        <ele>299.8</ele>
        <time>2023-09-21T16:00:45Z</time>
      </trkpt>
      <trkpt lat="48.7249" lon="7.14818">
        <ele>299.1</ele>
        <time>2023-09-21T16:00:51Z</time>
      </trkpt>
      <trkpt lat="48.72489" lon="7.14788">
        <ele>298.5</ele>
        <time>2023-09-21T16:00:57Z</time>
      </trkpt>
      <trkpt lat="48.72485" lon="7.14787">
        <ele>298.7</ele>
        <time>2023-09-21T16:00:59Z</time>
      </trkpt>
      <trkpt lat="48.72469" lon="7.14804">
        <ele>299.7</ele>
        <time>2023-09-21T16:01:06Z</time>
      </trkpt>
      <trkpt lat="48.72455" lon="7.14823">
        <ele>300.8</ele>
        <time>2023-09-21T16:01:12Z</time>
      </trkpt>
      <trkpt lat="48.72441" lon="7.1484">
        <ele>301.9</ele>
        <time>2023-09-21T16:01:18Z</time>
      </trkpt>
      <trkpt lat="48.72426" lon="7.14858">
        <ele>303.1</ele>
        <time>2023-09-21T16:01:25Z</time>
      </trkpt>
      <trkpt lat="48.72411" lon="7.14877">
        <ele>304.3</ele>
        <time>2023-09-21T16:01:32Z</time>
      </trkpt>
      <trkpt lat="48.72396" lon="7.14896">
        <ele>305.5</ele>
        <time>2023-09-21T16:01:39Z</time>
      </trkpt>
      <trkpt lat="48.72381" lon="7.14913">
        <ele>306.6</ele>
        <time>2023-09-21T16:01:46Z</time>
      </trkpt>
      <trkpt lat="48.72366" lon="7.14932">
        <ele>307.7</ele>
        <time>2023-09-21T16:01:54Z</time>
      </trkpt>
      <trkpt lat="48.72351" lon="7.1495">
        <ele>308.9</ele>
        <time>2023-09-21T16:02:01Z</time>
      </trkpt>
      <trkpt lat="48.72337" lon="7.14968">
        <ele>310</ele>
        <time>2023-09-21T16:02:08Z</time>
      </trkpt>
      <trkpt lat="48.72322" lon="7.14983">
        <ele>311.3</ele>
        <time>2023-09-21T16:02:15Z</time>
      </trkpt>
      <trkpt lat="48.72306" lon="7.14998">
        <ele>312.8</ele>
        <time>2023-09-21T16:02:23Z</time>
      </trkpt>
      <trkpt lat="48.7229" lon="7.15017">
        <ele>314.6</ele>
        <time>2023-09-21T16:02:31Z</time>
      </trkpt>
      <trkpt lat="48.72273" lon="7.15031">
        <ele>316.3</ele>
        <time>2023-09-21T16:02:40Z</time>
      </trkpt>
      <trkpt lat="48.72256" lon="7.15049">
        <ele>317.8</ele>
        <time>2023-09-21T16:02:47Z</time>
      </trkpt>
      <trkpt lat="48.72241" lon="7.15067">
        <ele>319.1</ele>
        <time>2023-09-21T16:02:53Z</time>
      </trkpt>
      <trkpt lat="48.72225" lon="7.15083">
        <ele>320.7</ele>
        <time>2023-09-21T16:02:59Z</time>
      </trkpt>
      <trkpt lat="48.72207" lon="7.15096">
        <ele>322.4</ele>
        <time>2023-09-21T16:03:06Z</time>
      </trkpt>
      <trkpt lat="48.72189" lon="7.15109">
        <ele>324.2</ele>
        <time>2023-09-21T16:03:13Z</time>
      </trkpt>
      <trkpt lat="48.7217" lon="7.15122">
        <ele>325.8</ele>
        <time>2023-09-21T16:03:20Z</time>
      </trkpt>
      <trkpt lat="48.72153" lon="7.15136">
        <ele>327.3</ele>
        <time>2023-09-21T16:03:26Z</time>
      </trkpt>
      <trkpt lat="48.72135" lon="7.15149">
        <ele>328.7</ele>
        <time>2023-09-21T16:03:33Z</time>
      </trkpt>
      <trkpt lat="48.72127" lon="7.15149">
        <ele>329.2</ele>
        <time>2023-09-21T16:03:37Z</time>
      </trkpt>
      <trkpt lat="48.72123" lon="7.15122">
        <ele>329.7</ele>
        <time>2023-09-21T16:03:44Z</time>
      </trkpt>
      <trkpt lat="48.7212" lon="7.15092">
        <ele>329.8</ele>
        <time>2023-09-21T16:03:51Z</time>
      </trkpt>
      <trkpt lat="48.72117" lon="7.15067">
        <ele>330.1</ele>
        <time>2023-09-21T16:03:59Z</time>
      </trkpt>
      <trkpt lat="48.721" lon="7.15066">
        <ele>330.7</ele>
        <time>2023-09-21T16:04:07Z</time>
      </trkpt>
      <trkpt lat="48.72088" lon="7.15044">
        <ele>329.1</ele>
        <time>2023-09-21T16:04:15Z</time>
      </trkpt>
      <trkpt lat="48.72079" lon="7.15019">
        <ele>328.7</ele>
        <time>2023-09-21T16:04:21Z</time>
      </trkpt>
      <trkpt lat="48.7207" lon="7.14993">
        <ele>328.6</ele>
        <time>2023-09-21T16:04:27Z</time>
      </trkpt>
      <trkpt lat="48.72068" lon="7.14964">
        <ele>328.3</ele>
        <time>2023-09-21T16:04:34Z</time>
      </trkpt>
      <trkpt lat="48.72067" lon="7.14934">
        <ele>327.3</ele>
        <time>2023-09-21T16:04:40Z</time>
      </trkpt>
      <trkpt lat="48.72065" lon="7.14907">
        <ele>326.2</ele>
        <time>2023-09-21T16:04:45Z</time>
      </trkpt>
      <trkpt lat="48.72065" lon="7.14878">
        <ele>325</ele>
        <time>2023-09-21T16:04:50Z</time>
      </trkpt>
      <trkpt lat="48.72066" lon="7.14848">
        <ele>323.6</ele>
        <time>2023-09-21T16:04:56Z</time>
      </trkpt>
      <trkpt lat="48.72067" lon="7.14821">
        <ele>322.7</ele>
        <time>2023-09-21T16:05:03Z</time>
      </trkpt>
      <trkpt lat="48.72069" lon="7.14789">
        <ele>321.6</ele>
        <time>2023-09-21T16:05:10Z</time>
      </trkpt>
      <trkpt lat="48.72068" lon="7.1476">
        <ele>320.2</ele>
        <time>2023-09-21T16:05:16Z</time>
      </trkpt>
      <trkpt lat="48.72063" lon="7.1473">
        <ele>318.6</ele>
        <time>2023-09-21T16:05:22Z</time>
      </trkpt>
      <trkpt lat="48.72057" lon="7.14722">
        <ele>319.4</ele>
        <time>2023-09-21T16:05:25Z</time>
      </trkpt>
      <trkpt lat="48.72037" lon="7.14722">
        <ele>321.5</ele>
        <time>2023-09-21T16:05:35Z</time>
      </trkpt>
      <trkpt lat="48.72019" lon="7.14727">
        <ele>323.7</ele>
        <time>2023-09-21T16:05:42Z</time>
      </trkpt>
      <trkpt lat="48.72" lon="7.14734">
        <ele>325.3</ele>
        <time>2023-09-21T16:05:49Z</time>
      </trkpt>
      <trkpt lat="48.7198" lon="7.14741">
        <ele>326.8</ele>
        <time>2023-09-21T16:05:56Z</time>
      </trkpt>
      <trkpt lat="48.7196" lon="7.14749">
        <ele>328.3</ele>
        <time>2023-09-21T16:06:03Z</time>
      </trkpt>
      <trkpt lat="48.71942" lon="7.14751">
        <ele>329.6</ele>
        <time>2023-09-21T16:06:08Z</time>
      </trkpt>
      <trkpt lat="48.71924" lon="7.14756">
        <ele>330.9</ele>
        <time>2023-09-21T16:06:13Z</time>
      </trkpt>
      <trkpt lat="48.71905" lon="7.14762">
        <ele>332.5</ele>
        <time>2023-09-21T16:06:19Z</time>
      </trkpt>
      <trkpt lat="48.71885" lon="7.14768">
        <ele>334.3</ele>
        <time>2023-09-21T16:06:25Z</time>
      </trkpt>
      <trkpt lat="48.71867" lon="7.14774">
        <ele>335.8</ele>
        <time>2023-09-21T16:06:31Z</time>
      </trkpt>
      <trkpt lat="48.71849" lon="7.14781">
        <ele>337.3</ele>
        <time>2023-09-21T16:06:37Z</time>
      </trkpt>
      <trkpt lat="48.71828" lon="7.14789">
        <ele>339</ele>
        <time>2023-09-21T16:06:44Z</time>
      </trkpt>
      <trkpt lat="48.71809" lon="7.14798">
        <ele>340.9</ele>
        <time>2023-09-21T16:06:51Z</time>
      </trkpt>
      <trkpt lat="48.7179" lon="7.14804">
        <ele>342.4</ele>
        <time>2023-09-21T16:06:57Z</time>
      </trkpt>
      <trkpt lat="48.71769" lon="7.1481">
        <ele>343.9</ele>
        <time>2023-09-21T16:07:03Z</time>
      </trkpt>
      <trkpt lat="48.71749" lon="7.14817">
        <ele>345.3</ele>
        <time>2023-09-21T16:07:09Z</time>
      </trkpt>
      <trkpt lat="48.7173" lon="7.14823">
        <ele>346.6</ele>
        <time>2023-09-21T16:07:15Z</time>
      </trkpt>
      <trkpt lat="48.71712" lon="7.14831">
        <ele>348</ele>
        <time>2023-09-21T16:07:21Z</time>
      </trkpt>
      <trkpt lat="48.71693" lon="7.14838">
        <ele>348.5</ele>
        <time>2023-09-21T16:07:27Z</time>
      </trkpt>
      <trkpt lat="48.71674" lon="7.14845">
        <ele>348.2</ele>
        <time>2023-09-21T16:07:34Z</time>
      </trkpt>
      <trkpt lat="48.71654" lon="7.14852">
        <ele>348</ele>
        <time>2023-09-21T16:07:41Z</time>
      </trkpt>
      <trkpt lat="48.71633" lon="7.14859">
        <ele>348</ele>
        <time>2023-09-21T16:07:48Z</time>
      </trkpt>
      <trkpt lat="48.71614" lon="7.14865">
        <ele>348</ele>
        <time>2023-09-21T16:07:54Z</time>
      </trkpt>
      <trkpt lat="48.71593" lon="7.14871">
        <ele>348.1</ele>
        <time>2023-09-21T16:08:00Z</time>
      </trkpt>
      <trkpt lat="48.71575" lon="7.14878">
        <ele>348</ele>
        <time>2023-09-21T16:08:06Z</time>
      </trkpt>
      <trkpt lat="48.71555" lon="7.14887">
        <ele>348.1</ele>
        <time>2023-09-21T16:08:12Z</time>
      </trkpt>
      <trkpt lat="48.71536" lon="7.14895">
        <ele>348.1</ele>
        <time>2023-09-21T16:08:18Z</time>
      </trkpt>
      <trkpt lat="48.71516" lon="7.149">
        <ele>348.3</ele>
        <time>2023-09-21T16:08:24Z</time>
      </trkpt>
      <trkpt lat="48.71497" lon="7.14907">
        <ele>348.5</ele>
        <time>2023-09-21T16:08:30Z</time>
      </trkpt>
      <trkpt lat="48.71478" lon="7.14916">
        <ele>348.4</ele>
        <time>2023-09-21T16:08:37Z</time>
      </trkpt>
      <trkpt lat="48.71459" lon="7.1492">
        <ele>348.2</ele>
        <time>2023-09-21T16:08:43Z</time>
      </trkpt>
      <trkpt lat="48.71441" lon="7.14925">
        <ele>348.1</ele>
        <time>2023-09-21T16:08:49Z</time>
      </trkpt>
      <trkpt lat="48.71422" lon="7.14935">
        <ele>347.7</ele>
        <time>2023-09-21T16:08:56Z</time>
      </trkpt>
      <trkpt lat="48.71401" lon="7.14942">
        <ele>347.6</ele>
        <time>2023-09-21T16:09:03Z</time>
      </trkpt>
      <trkpt lat="48.71383" lon="7.14948">
        <ele>347.4</ele>
        <time>2023-09-21T16:09:08Z</time>
      </trkpt>
      <trkpt lat="48.71364" lon="7.14954">
        <ele>346.7</ele>
        <time>2023-09-21T16:09:14Z</time>
      </trkpt>
      <trkpt lat="48.71345" lon="7.14961">
        <ele>346.2</ele>
        <time>2023-09-21T16:09:20Z</time>
      </trkpt>
      <trkpt lat="48.71326" lon="7.14967">
        <ele>345.7</ele>
        <time>2023-09-21T16:09:27Z</time>
      </trkpt>
      <trkpt lat="48.71306" lon="7.14972">
        <ele>344.9</ele>
        <time>2023-09-21T16:09:33Z</time>
      </trkpt>
      <trkpt lat="48.71287" lon="7.14977">
        <ele>344.1</ele>
        <time>2023-09-21T16:09:39Z</time>
      </trkpt>
      <trkpt lat="48.71266" lon="7.14984">
        <ele>343.4</ele>
        <time>2023-09-21T16:09:45Z</time>
      </trkpt>
      <trkpt lat="48.71246" lon="7.14991">
        <ele>342.8</ele>
        <time>2023-09-21T16:09:51Z</time>
      </trkpt>
      <trkpt lat="48.71227" lon="7.14997">
        <ele>342.2</ele>
        <time>2023-09-21T16:09:57Z</time>
      </trkpt>
      <trkpt lat="48.71209" lon="7.15004">
        <ele>341.9</ele>
        <time>2023-09-21T16:10:03Z</time>
      </trkpt>
      <trkpt lat="48.71191" lon="7.15015">
        <ele>342.1</ele>
        <time>2023-09-21T16:10:09Z</time>
      </trkpt>
      <trkpt lat="48.71171" lon="7.15022">
        <ele>341.7</ele>
        <time>2023-09-21T16:10:16Z</time>
      </trkpt>
      <trkpt lat="48.7115" lon="7.15027">
        <ele>341.5</ele>
        <time>2023-09-21T16:10:23Z</time>
      </trkpt>
      <trkpt lat="48.7113" lon="7.15033">
        <ele>341.3</ele>
        <time>2023-09-21T16:10:30Z</time>
      </trkpt>
      <trkpt lat="48.71113" lon="7.15033">
        <ele>341.3</ele>
        <time>2023-09-21T16:10:36Z</time>
      </trkpt>
      <trkpt lat="48.71109" lon="7.15027">
        <ele>341.2</ele>
        <time>2023-09-21T16:10:39Z</time>
      </trkpt>
      <trkpt lat="48.71111" lon="7.14999">
        <ele>340.6</ele>
        <time>2023-09-21T16:10:47Z</time>
      </trkpt>
      <trkpt lat="48.71104" lon="7.14982">
        <ele>339.9</ele>
        <time>2023-09-21T16:10:53Z</time>
      </trkpt>
      <trkpt lat="48.71084" lon="7.1498">
        <ele>339.6</ele>
        <time>2023-09-21T16:10:59Z</time>
      </trkpt>
      <trkpt lat="48.71063" lon="7.14976">
        <ele>339.4</ele>
        <time>2023-09-21T16:11:05Z</time>
      </trkpt>
      <trkpt lat="48.71045" lon="7.14971">
        <ele>339.4</ele>
        <time>2023-09-21T16:11:11Z</time>
      </trkpt>
      <trkpt lat="48.71028" lon="7.14962">
        <ele>339.4</ele>
        <time>2023-09-21T16:11:17Z</time>
      </trkpt>
      <trkpt lat="48.71021" lon="7.14959">
        <ele>339.5</ele>
        <time>2023-09-21T16:11:20Z</time>
      </trkpt>
      <trkpt lat="48.71012" lon="7.14986">
        <ele>339.8</ele>
        <time>2023-09-21T16:11:26Z</time>
      </trkpt>
      <trkpt lat="48.71005" lon="7.15013">
        <ele>340.3</ele>
        <time>2023-09-21T16:11:31Z</time>
      </trkpt>
      <trkpt lat="48.70999" lon="7.15039">
        <ele>340.9</ele>
        <time>2023-09-21T16:11:36Z</time>
      </trkpt>
      <trkpt lat="48.70993" lon="7.15065">
        <ele>341.6</ele>
        <time>2023-09-21T16:11:41Z</time>
      </trkpt>
      <trkpt lat="48.70987" lon="7.15092">
        <ele>342.6</ele>
        <time>2023-09-21T16:11:46Z</time>
      </trkpt>
      <trkpt lat="48.70982" lon="7.1512">
        <ele>343.5</ele>
        <time>2023-09-21T16:11:51Z</time>
      </trkpt>
      <trkpt lat="48.70977" lon="7.15146">
        <ele>344.4</ele>
        <time>2023-09-21T16:11:56Z</time>
      </trkpt>
      <trkpt lat="48.70974" lon="7.15177">
        <ele>345.2</ele>
        <time>2023-09-21T16:12:02Z</time>
      </trkpt>
      <trkpt lat="48.7097" lon="7.15208">
        <ele>346.2</ele>
        <time>2023-09-21T16:12:08Z</time>
      </trkpt>
      <trkpt lat="48.70965" lon="7.15239">
        <ele>346.8</ele>
        <time>2023-09-21T16:12:14Z</time>
      </trkpt>
      <trkpt lat="48.70963" lon="7.15271">
        <ele>347.3</ele>
        <time>2023-09-21T16:12:20Z</time>
      </trkpt>
      <trkpt lat="48.70961" lon="7.15298">
        <ele>347.7</ele>
        <time>2023-09-21T16:12:25Z</time>
      </trkpt>
      <trkpt lat="48.70958" lon="7.15326">
        <ele>348.3</ele>
        <time>2023-09-21T16:12:30Z</time>
      </trkpt>
      <trkpt lat="48.70955" lon="7.15357">
        <ele>349.1</ele>
        <time>2023-09-21T16:12:36Z</time>
      </trkpt>
      <trkpt lat="48.70952" lon="7.15389">
        <ele>350.4</ele>
        <time>2023-09-21T16:12:42Z</time>
      </trkpt>
      <trkpt lat="48.7095" lon="7.15421">
        <ele>350.8</ele>
        <time>2023-09-21T16:12:48Z</time>
      </trkpt>
      <trkpt lat="48.70949" lon="7.15451">
        <ele>350.4</ele>
        <time>2023-09-21T16:12:54Z</time>
      </trkpt>
      <trkpt lat="48.7095" lon="7.15482">
        <ele>349.5</ele>
        <time>2023-09-21T16:13:00Z</time>
      </trkpt>
      <trkpt lat="48.70952" lon="7.15514">
        <ele>348.6</ele>
        <time>2023-09-21T16:13:06Z</time>
      </trkpt>
      <trkpt lat="48.70954" lon="7.15547">
        <ele>347.5</ele>
        <time>2023-09-21T16:13:12Z</time>
      </trkpt>
      <trkpt lat="48.70955" lon="7.15578">
        <ele>346.5</ele>
        <time>2023-09-21T16:13:18Z</time>
      </trkpt>
      <trkpt lat="48.70956" lon="7.15605">
        <ele>345.5</ele>
        <time>2023-09-21T16:13:23Z</time>
      </trkpt>
      <trkpt lat="48.70956" lon="7.15637">
        <ele>344.2</ele>
        <time>2023-09-21T16:13:29Z</time>
      </trkpt>
      <trkpt lat="48.70958" lon="7.15668">
        <ele>342.8</ele>
        <time>2023-09-21T16:13:35Z</time>
      </trkpt>
      <trkpt lat="48.70974" lon="7.15685">
        <ele>341.5</ele>
        <time>2023-09-21T16:13:41Z</time>
      </trkpt>
      <trkpt lat="48.70993" lon="7.15691">
        <ele>340.6</ele>
        <time>2023-09-21T16:13:46Z</time>
      </trkpt>
      <trkpt lat="48.71011" lon="7.15696">
        <ele>339.4</ele>
        <time>2023-09-21T16:13:51Z</time>
      </trkpt>
      <trkpt lat="48.71029" lon="7.15699">
        <ele>338.2</ele>
        <time>2023-09-21T16:13:56Z</time>
      </trkpt>
      <trkpt lat="48.71047" lon="7.15702">
        <ele>336.9</ele>
        <time>2023-09-21T16:14:01Z</time>
      </trkpt>
      <trkpt lat="48.71066" lon="7.15712">
        <ele>335.9</ele>
        <time>2023-09-21T16:14:06Z</time>
      </trkpt>
      <trkpt lat="48.71082" lon="7.15722">
        <ele>335.2</ele>
        <time>2023-09-21T16:14:11Z</time>
      </trkpt>
      <trkpt lat="48.71099" lon="7.15734">
        <ele>334.8</ele>
        <time>2023-09-21T16:14:16Z</time>
      </trkpt>
      <trkpt lat="48.71117" lon="7.15745">
        <ele>334.8</ele>
        <time>2023-09-21T16:14:21Z</time>
      </trkpt>
      <trkpt lat="48.71135" lon="7.15754">
        <ele>334.8</ele>
        <time>2023-09-21T16:14:26Z</time>
      </trkpt>
      <trkpt lat="48.71152" lon="7.15763">
        <ele>335.1</ele>
        <time>2023-09-21T16:14:31Z</time>
      </trkpt>
      <trkpt lat="48.71169" lon="7.15774">
        <ele>335.3</ele>
        <time>2023-09-21T16:14:36Z</time>
      </trkpt>
      <trkpt lat="48.71189" lon="7.15785">
        <ele>335.5</ele>
        <time>2023-09-21T16:14:42Z</time>
      </trkpt>
      <trkpt lat="48.71208" lon="7.15791">
        <ele>335.8</ele>
        <time>2023-09-21T16:14:48Z</time>
      </trkpt>
      <trkpt lat="48.71226" lon="7.15808">
        <ele>336.2</ele>
        <time>2023-09-21T16:14:54Z</time>
      </trkpt>
      <trkpt lat="48.7124" lon="7.15832">
        <ele>336.1</ele>
        <time>2023-09-21T16:15:00Z</time>
      </trkpt>
      <trkpt lat="48.71252" lon="7.15853">
        <ele>335.7</ele>
        <time>2023-09-21T16:15:05Z</time>
      </trkpt>
      <trkpt lat="48.71263" lon="7.15877">
        <ele>335.1</ele>
        <time>2023-09-21T16:15:11Z</time>
      </trkpt>
      <trkpt lat="48.71276" lon="7.159">
        <ele>334.8</ele>
        <time>2023-09-21T16:15:17Z</time>
      </trkpt>
      <trkpt lat="48.71288" lon="7.15926">
        <ele>334.1</ele>
        <time>2023-09-21T16:15:23Z</time>
      </trkpt>
      <trkpt lat="48.71301" lon="7.15951">
        <ele>333.2</ele>
        <time>2023-09-21T16:15:29Z</time>
      </trkpt>
      <trkpt lat="48.71309" lon="7.15979">
        <ele>331.5</ele>
        <time>2023-09-21T16:15:35Z</time>
      </trkpt>
      <trkpt lat="48.71314" lon="7.1601">
        <ele>329.5</ele>
        <time>2023-09-21T16:15:41Z</time>
      </trkpt>
      <trkpt lat="48.71321" lon="7.1604">
        <ele>327.5</ele>
        <time>2023-09-21T16:15:47Z</time>
      </trkpt>
      <trkpt lat="48.71329" lon="7.16069">
        <ele>326</ele>
        <time>2023-09-21T16:15:53Z</time>
      </trkpt>
      <trkpt lat="48.7132" lon="7.16096">
        <ele>324.9</ele>
        <time>2023-09-21T16:15:59Z</time>
      </trkpt>
      <trkpt lat="48.71307" lon="7.1612">
        <ele>324</ele>
        <time>2023-09-21T16:16:05Z</time>
      </trkpt>
      <trkpt lat="48.71297" lon="7.16144">
        <ele>323.3</ele>
        <time>2023-09-21T16:16:10Z</time>
      </trkpt>
      <trkpt lat="48.71303" lon="7.16171">
        <ele>322.5</ele>
        <time>2023-09-21T16:16:16Z</time>
      </trkpt>
      <trkpt lat="48.71311" lon="7.16188">
        <ele>321.9</ele>
        <time>2023-09-21T16:16:21Z</time>
      </trkpt>
      <trkpt lat="48.71292" lon="7.16197">
        <ele>321.7</ele>
        <time>2023-09-21T16:16:27Z</time>
      </trkpt>
      <trkpt lat="48.71273" lon="7.16192">
        <ele>321.1</ele>
        <time>2023-09-21T16:16:32Z</time>
      </trkpt>
      <trkpt lat="48.71256" lon="7.16181">
        <ele>320.4</ele>
        <time>2023-09-21T16:16:37Z</time>
      </trkpt>
      <trkpt lat="48.71236" lon="7.16167">
        <ele>320.2</ele>
        <time>2023-09-21T16:16:43Z</time>
      </trkpt>
      <trkpt lat="48.71218" lon="7.16156">
        <ele>320.1</ele>
        <time>2023-09-21T16:16:49Z</time>
      </trkpt>
      <trkpt lat="48.712" lon="7.16141">
        <ele>319.6</ele>
        <time>2023-09-21T16:16:55Z</time>
      </trkpt>
      <trkpt lat="48.71183" lon="7.16125">
        <ele>318.7</ele>
        <time>2023-09-21T16:17:01Z</time>
      </trkpt>
      <trkpt lat="48.71164" lon="7.16122">
        <ele>317.3</ele>
        <time>2023-09-21T16:17:07Z</time>
      </trkpt>
      <trkpt lat="48.71146" lon="7.16124">
        <ele>316.2</ele>
        <time>2023-09-21T16:17:12Z</time>
      </trkpt>
      <trkpt lat="48.71128" lon="7.16123">
        <ele>315.8</ele>
        <time>2023-09-21T16:17:17Z</time>
      </trkpt>
      <trkpt lat="48.7111" lon="7.1611">
        <ele>315.9</ele>
        <time>2023-09-21T16:17:23Z</time>
      </trkpt>
      <trkpt lat="48.71103" lon="7.1611">
        <ele>315.8</ele>
        <time>2023-09-21T16:17:26Z</time>
      </trkpt>
      <trkpt lat="48.711" lon="7.16138">
        <ele>315.9</ele>
        <time>2023-09-21T16:17:32Z</time>
      </trkpt>
      <trkpt lat="48.71096" lon="7.16167">
        <ele>316.5</ele>
        <time>2023-09-21T16:17:38Z</time>
      </trkpt>
      <trkpt lat="48.71093" lon="7.16196">
        <ele>317.4</ele>
        <time>2023-09-21T16:17:44Z</time>
      </trkpt>
      <trkpt lat="48.71098" lon="7.16223">
        <ele>317.5</ele>
        <time>2023-09-21T16:17:50Z</time>
      </trkpt>
      <trkpt lat="48.7111" lon="7.16244">
        <ele>317.3</ele>
        <time>2023-09-21T16:17:55Z</time>
      </trkpt>
      <trkpt lat="48.71126" lon="7.16261">
        <ele>317.1</ele>
        <time>2023-09-21T16:18:00Z</time>
      </trkpt>
      <trkpt lat="48.71143" lon="7.16274">
        <ele>316.6</ele>
        <time>2023-09-21T16:18:05Z</time>
      </trkpt>
      <trkpt lat="48.71145" lon="7.16278">
        <ele>316.5</ele>
        <time>2023-09-21T16:18:06Z</time>
      </trkpt>
    </trkseg>
  </trk>
</gpx>